<?xml version="1.0" encoding="UTF-8" standalone="no" ?>
<gpx xmlns="http://www.topografix.com/GPX/1/1" xmlns:xsi="http://www.w3.org/2001/XMLSchema-instance" xsi:schemaLocation="http://www.topografix.com/GPX/1/1 http://www.topografix.com/GPX/1/1/gpx.xsd" version="1.1" creator="VisuGPX - https://www.visugpx.com">
  <metadata>
    <name>Tour des Baous</name>
    <desc><![CDATA[Tour des Baous affiné pour vae...........]]></desc>
  </metadata>
  <trk>
    <name><![CDATA[Tour Baous JJG]]></name>
    <trkseg>
      <trkpt lat="43.74931" lon="7.1446">
        <ele>411</ele>
        <time>2012-12-09T08:09:30Z</time>
      </trkpt>
      <trkpt lat="43.74942" lon="7.14463">
        <ele>411.2</ele>
        <time>2012-12-09T08:09:36Z</time>
      </trkpt>
      <trkpt lat="43.74964" lon="7.14471">
        <ele>414</ele>
        <time>2012-12-09T08:09:50Z</time>
      </trkpt>
      <trkpt lat="43.74969" lon="7.14475">
        <ele>415</ele>
        <time>2012-12-09T08:09:53Z</time>
      </trkpt>
      <trkpt lat="43.74978" lon="7.1447">
        <ele>416.6</ele>
        <time>2012-12-09T08:09:58Z</time>
      </trkpt>
      <trkpt lat="43.74989" lon="7.14445">
        <ele>422.4</ele>
        <time>2012-12-09T08:10:10Z</time>
      </trkpt>
      <trkpt lat="43.74995" lon="7.14441">
        <ele>423.2</ele>
        <time>2012-12-09T08:10:14Z</time>
      </trkpt>
      <trkpt lat="43.75005" lon="7.14437">
        <ele>424.6</ele>
        <time>2012-12-09T08:10:22Z</time>
      </trkpt>
      <trkpt lat="43.75016" lon="7.1444">
        <ele>422.1</ele>
        <time>2012-12-09T08:10:29Z</time>
      </trkpt>
      <trkpt lat="43.75024" lon="7.14444">
        <ele>420.7</ele>
        <time>2012-12-09T08:10:34Z</time>
      </trkpt>
      <trkpt lat="43.7503" lon="7.1444">
        <ele>420.6</ele>
        <time>2012-12-09T08:10:39Z</time>
      </trkpt>
      <trkpt lat="43.75031" lon="7.14426">
        <ele>423.9</ele>
        <time>2012-12-09T08:10:46Z</time>
      </trkpt>
      <trkpt lat="43.75031" lon="7.14418">
        <ele>425.4</ele>
        <time>2012-12-09T08:10:50Z</time>
      </trkpt>
      <trkpt lat="43.75038" lon="7.14418">
        <ele>426.8</ele>
        <time>2012-12-09T08:10:55Z</time>
      </trkpt>
      <trkpt lat="43.7504" lon="7.14433">
        <ele>427.5</ele>
        <time>2012-12-09T08:11:02Z</time>
      </trkpt>
      <trkpt lat="43.75038" lon="7.1444">
        <ele>428.9</ele>
        <time>2012-12-09T08:11:05Z</time>
      </trkpt>
      <trkpt lat="43.75038" lon="7.1445">
        <ele>429.1</ele>
        <time>2012-12-09T08:11:10Z</time>
      </trkpt>
      <trkpt lat="43.75038" lon="7.14453">
        <ele>429.2</ele>
        <time>2012-12-09T08:11:12Z</time>
      </trkpt>
      <trkpt lat="43.75036" lon="7.14469">
        <ele>430.7</ele>
        <time>2012-12-09T08:11:20Z</time>
      </trkpt>
      <trkpt lat="43.75037" lon="7.14504">
        <ele>433.4</ele>
        <time>2012-12-09T08:11:35Z</time>
      </trkpt>
      <trkpt lat="43.75041" lon="7.1454">
        <ele>437.8</ele>
        <time>2012-12-09T08:11:51Z</time>
      </trkpt>
      <trkpt lat="43.75038" lon="7.14571">
        <ele>437.3</ele>
        <time>2012-12-09T08:12:03Z</time>
      </trkpt>
      <trkpt lat="43.75044" lon="7.14602">
        <ele>436.6</ele>
        <time>2012-12-09T08:12:17Z</time>
      </trkpt>
      <trkpt lat="43.75039" lon="7.14624">
        <ele>438.1</ele>
        <time>2012-12-09T08:12:27Z</time>
      </trkpt>
      <trkpt lat="43.75044" lon="7.1463">
        <ele>438.1</ele>
        <time>2012-12-09T08:12:32Z</time>
      </trkpt>
      <trkpt lat="43.75052" lon="7.14635">
        <ele>437.9</ele>
        <time>2012-12-09T08:12:38Z</time>
      </trkpt>
      <trkpt lat="43.75055" lon="7.14646">
        <ele>438</ele>
        <time>2012-12-09T08:12:44Z</time>
      </trkpt>
      <trkpt lat="43.75056" lon="7.14647">
        <ele>438</ele>
        <time>2012-12-09T08:12:45Z</time>
      </trkpt>
      <trkpt lat="43.75063" lon="7.14657">
        <ele>439.6</ele>
        <time>2012-12-09T08:12:53Z</time>
      </trkpt>
      <trkpt lat="43.75065" lon="7.14664">
        <ele>441</ele>
        <time>2012-12-09T08:12:57Z</time>
      </trkpt>
      <trkpt lat="43.7507" lon="7.14658">
        <ele>440.7</ele>
        <time>2012-12-09T08:13:02Z</time>
      </trkpt>
      <trkpt lat="43.75081" lon="7.14634">
        <ele>449.4</ele>
        <time>2012-12-09T08:13:17Z</time>
      </trkpt>
      <trkpt lat="43.75083" lon="7.14632">
        <ele>450.2</ele>
        <time>2012-12-09T08:13:19Z</time>
      </trkpt>
      <trkpt lat="43.75088" lon="7.14627">
        <ele>454.2</ele>
        <time>2012-12-09T08:13:26Z</time>
      </trkpt>
      <trkpt lat="43.75095" lon="7.14623">
        <ele>458.7</ele>
        <time>2012-12-09T08:13:34Z</time>
      </trkpt>
      <trkpt lat="43.75104" lon="7.14616">
        <ele>463.2</ele>
        <time>2012-12-09T08:13:43Z</time>
      </trkpt>
      <trkpt lat="43.75105" lon="7.14612">
        <ele>463.7</ele>
        <time>2012-12-09T08:13:46Z</time>
      </trkpt>
      <trkpt lat="43.75113" lon="7.14604">
        <ele>469.7</ele>
        <time>2012-12-09T08:13:55Z</time>
      </trkpt>
      <trkpt lat="43.75118" lon="7.146">
        <ele>473.4</ele>
        <time>2012-12-09T08:14:00Z</time>
      </trkpt>
      <trkpt lat="43.75124" lon="7.14589">
        <ele>475.5</ele>
        <time>2012-12-09T08:14:09Z</time>
      </trkpt>
      <trkpt lat="43.75129" lon="7.14577">
        <ele>476.3</ele>
        <time>2012-12-09T08:14:17Z</time>
      </trkpt>
      <trkpt lat="43.75136" lon="7.14564">
        <ele>478.2</ele>
        <time>2012-12-09T08:14:27Z</time>
      </trkpt>
      <trkpt lat="43.75148" lon="7.14525">
        <ele>483.2</ele>
        <time>2012-12-09T08:14:55Z</time>
      </trkpt>
      <trkpt lat="43.75153" lon="7.14515">
        <ele>485.7</ele>
        <time>2012-12-09T08:15:04Z</time>
      </trkpt>
      <trkpt lat="43.75154" lon="7.14514">
        <ele>486</ele>
        <time>2012-12-09T08:15:05Z</time>
      </trkpt>
      <trkpt lat="43.7516" lon="7.14505">
        <ele>486.5</ele>
        <time>2012-12-09T08:15:13Z</time>
      </trkpt>
      <trkpt lat="43.75162" lon="7.14497">
        <ele>492</ele>
        <time>2012-12-09T08:15:20Z</time>
      </trkpt>
      <trkpt lat="43.75165" lon="7.14494">
        <ele>491</ele>
        <time>2012-12-09T08:15:24Z</time>
      </trkpt>
      <trkpt lat="43.7517" lon="7.14482">
        <ele>493.9</ele>
        <time>2012-12-09T08:15:33Z</time>
      </trkpt>
      <trkpt lat="43.75171" lon="7.14481">
        <ele>494.3</ele>
        <time>2012-12-09T08:15:34Z</time>
      </trkpt>
      <trkpt lat="43.75173" lon="7.14479">
        <ele>495.3</ele>
        <time>2012-12-09T08:15:37Z</time>
      </trkpt>
      <trkpt lat="43.75179" lon="7.14454">
        <ele>498.5</ele>
        <time>2012-12-09T08:15:54Z</time>
      </trkpt>
      <trkpt lat="43.75182" lon="7.14423">
        <ele>495.9</ele>
        <time>2012-12-09T08:16:10Z</time>
      </trkpt>
      <trkpt lat="43.75189" lon="7.14402">
        <ele>497.9</ele>
        <time>2012-12-09T08:16:22Z</time>
      </trkpt>
      <trkpt lat="43.75201" lon="7.14384">
        <ele>501.3</ele>
        <time>2012-12-09T08:16:36Z</time>
      </trkpt>
      <trkpt lat="43.7524" lon="7.14353">
        <ele>503.3</ele>
        <time>2012-12-09T08:16:59Z</time>
      </trkpt>
      <trkpt lat="43.75241" lon="7.14338">
        <ele>502.3</ele>
        <time>2012-12-09T08:17:03Z</time>
      </trkpt>
      <trkpt lat="43.75237" lon="7.14335">
        <ele>500.8</ele>
        <time>2012-12-09T08:17:06Z</time>
      </trkpt>
      <trkpt lat="43.75228" lon="7.14329">
        <ele>501.8</ele>
        <time>2012-12-09T08:17:14Z</time>
      </trkpt>
      <trkpt lat="43.75211" lon="7.1431">
        <ele>502.6</ele>
        <time>2012-12-09T08:17:30Z</time>
      </trkpt>
      <trkpt lat="43.75145" lon="7.14248">
        <ele>508.2</ele>
        <time>2012-12-09T08:18:19Z</time>
      </trkpt>
      <trkpt lat="43.7514" lon="7.14241">
        <ele>511.3</ele>
        <time>2012-12-09T08:18:26Z</time>
      </trkpt>
      <trkpt lat="43.75134" lon="7.14232">
        <ele>515.9</ele>
        <time>2012-12-09T08:18:34Z</time>
      </trkpt>
      <trkpt lat="43.75096" lon="7.14198">
        <ele>521.5</ele>
        <time>2012-12-09T08:19:04Z</time>
      </trkpt>
      <trkpt lat="43.75087" lon="7.14192">
        <ele>522.7</ele>
        <time>2012-12-09T08:19:11Z</time>
      </trkpt>
      <trkpt lat="43.7506" lon="7.14181">
        <ele>524.4</ele>
        <time>2012-12-09T08:19:23Z</time>
      </trkpt>
      <trkpt lat="43.75051" lon="7.14174">
        <ele>521.2</ele>
        <time>2012-12-09T08:19:28Z</time>
      </trkpt>
      <trkpt lat="43.75048" lon="7.14172">
        <ele>520.1</ele>
        <time>2012-12-09T08:19:30Z</time>
      </trkpt>
      <trkpt lat="43.75046" lon="7.14167">
        <ele>516.5</ele>
        <time>2012-12-09T08:19:36Z</time>
      </trkpt>
      <trkpt lat="43.75052" lon="7.14163">
        <ele>501.4</ele>
        <time>2012-12-09T08:22:43Z</time>
      </trkpt>
      <trkpt lat="43.75051" lon="7.14164">
        <ele>504.6</ele>
        <time>2012-12-09T08:22:45Z</time>
      </trkpt>
      <trkpt lat="43.7507" lon="7.14165">
        <ele>506.8</ele>
        <time>2012-12-09T08:22:59Z</time>
      </trkpt>
      <trkpt lat="43.7508" lon="7.14167">
        <ele>508.6</ele>
        <time>2012-12-09T08:23:06Z</time>
      </trkpt>
      <trkpt lat="43.75105" lon="7.14176">
        <ele>510.8</ele>
        <time>2012-12-09T08:23:23Z</time>
      </trkpt>
      <trkpt lat="43.75114" lon="7.14177">
        <ele>512</ele>
        <time>2012-12-09T08:23:30Z</time>
      </trkpt>
      <trkpt lat="43.75141" lon="7.14186">
        <ele>515.5</ele>
        <time>2012-12-09T08:23:50Z</time>
      </trkpt>
      <trkpt lat="43.75162" lon="7.142">
        <ele>519</ele>
        <time>2012-12-09T08:24:06Z</time>
      </trkpt>
      <trkpt lat="43.75173" lon="7.14208">
        <ele>520.4</ele>
        <time>2012-12-09T08:24:14Z</time>
      </trkpt>
      <trkpt lat="43.75182" lon="7.14214">
        <ele>521.6</ele>
        <time>2012-12-09T08:24:22Z</time>
      </trkpt>
      <trkpt lat="43.75194" lon="7.14217">
        <ele>525.3</ele>
        <time>2012-12-09T08:24:30Z</time>
      </trkpt>
      <trkpt lat="43.7522" lon="7.14237">
        <ele>522.5</ele>
        <time>2012-12-09T08:24:51Z</time>
      </trkpt>
      <trkpt lat="43.7523" lon="7.14242">
        <ele>528.5</ele>
        <time>2012-12-09T08:24:59Z</time>
      </trkpt>
      <trkpt lat="43.75249" lon="7.14248">
        <ele>535.7</ele>
        <time>2012-12-09T08:25:13Z</time>
      </trkpt>
      <trkpt lat="43.75261" lon="7.14251">
        <ele>541.4</ele>
        <time>2012-12-09T08:25:22Z</time>
      </trkpt>
      <trkpt lat="43.75273" lon="7.14252">
        <ele>545.4</ele>
        <time>2012-12-09T08:25:30Z</time>
      </trkpt>
      <trkpt lat="43.75283" lon="7.14254">
        <ele>548</ele>
        <time>2012-12-09T08:25:38Z</time>
      </trkpt>
      <trkpt lat="43.75289" lon="7.14255">
        <ele>550.9</ele>
        <time>2012-12-09T08:25:44Z</time>
      </trkpt>
      <trkpt lat="43.75298" lon="7.14257">
        <ele>552</ele>
        <time>2012-12-09T08:25:51Z</time>
      </trkpt>
      <trkpt lat="43.75316" lon="7.14274">
        <ele>546.7</ele>
        <time>2012-12-09T08:26:06Z</time>
      </trkpt>
      <trkpt lat="43.75325" lon="7.14279">
        <ele>547.8</ele>
        <time>2012-12-09T08:26:14Z</time>
      </trkpt>
      <trkpt lat="43.75335" lon="7.14282">
        <ele>549.3</ele>
        <time>2012-12-09T08:26:22Z</time>
      </trkpt>
      <trkpt lat="43.75343" lon="7.14282">
        <ele>549.7</ele>
        <time>2012-12-09T08:26:28Z</time>
      </trkpt>
      <trkpt lat="43.7535" lon="7.14287">
        <ele>551.3</ele>
        <time>2012-12-09T08:26:33Z</time>
      </trkpt>
      <trkpt lat="43.75355" lon="7.14289">
        <ele>551.9</ele>
        <time>2012-12-09T08:26:36Z</time>
      </trkpt>
      <trkpt lat="43.75365" lon="7.14293">
        <ele>548</ele>
        <time>2012-12-09T08:26:42Z</time>
      </trkpt>
      <trkpt lat="43.75381" lon="7.14295">
        <ele>546.5</ele>
        <time>2012-12-09T08:26:54Z</time>
      </trkpt>
      <trkpt lat="43.75383" lon="7.14301">
        <ele>554.6</ele>
        <time>2012-12-09T08:26:58Z</time>
      </trkpt>
      <trkpt lat="43.75387" lon="7.14302">
        <ele>561.3</ele>
        <time>2012-12-09T08:27:03Z</time>
      </trkpt>
      <trkpt lat="43.75386" lon="7.14294">
        <ele>566.5</ele>
        <time>2012-12-09T08:27:10Z</time>
      </trkpt>
      <trkpt lat="43.75378" lon="7.14291">
        <ele>567</ele>
        <time>2012-12-09T08:27:16Z</time>
      </trkpt>
      <trkpt lat="43.75372" lon="7.14287">
        <ele>569.5</ele>
        <time>2012-12-09T08:27:22Z</time>
      </trkpt>
      <trkpt lat="43.75358" lon="7.14271">
        <ele>570.8</ele>
        <time>2012-12-09T08:27:36Z</time>
      </trkpt>
      <trkpt lat="43.75359" lon="7.14262">
        <ele>573.9</ele>
        <time>2012-12-09T08:27:43Z</time>
      </trkpt>
      <trkpt lat="43.75369" lon="7.14265">
        <ele>576.4</ele>
        <time>2012-12-09T08:27:57Z</time>
      </trkpt>
      <trkpt lat="43.75371" lon="7.14265">
        <ele>577.2</ele>
        <time>2012-12-09T08:28:02Z</time>
      </trkpt>
      <trkpt lat="43.75373" lon="7.14262">
        <ele>576.7</ele>
        <time>2012-12-09T08:28:07Z</time>
      </trkpt>
      <trkpt lat="43.75384" lon="7.14265">
        <ele>579.2</ele>
        <time>2012-12-09T08:28:22Z</time>
      </trkpt>
      <trkpt lat="43.75384" lon="7.14265">
        <ele>578.7</ele>
        <time>2012-12-09T08:28:24Z</time>
      </trkpt>
      <trkpt lat="43.75392" lon="7.14267">
        <ele>576.6</ele>
        <time>2012-12-09T08:28:30Z</time>
      </trkpt>
      <trkpt lat="43.75396" lon="7.14266">
        <ele>577.5</ele>
        <time>2012-12-09T08:28:33Z</time>
      </trkpt>
      <trkpt lat="43.75401" lon="7.14271">
        <ele>579</ele>
        <time>2012-12-09T08:28:37Z</time>
      </trkpt>
      <trkpt lat="43.75421" lon="7.14284">
        <ele>579.9</ele>
        <time>2012-12-09T08:28:52Z</time>
      </trkpt>
      <trkpt lat="43.75429" lon="7.14288">
        <ele>580.4</ele>
        <time>2012-12-09T08:28:59Z</time>
      </trkpt>
      <trkpt lat="43.75432" lon="7.14291">
        <ele>581.2</ele>
        <time>2012-12-09T08:29:02Z</time>
      </trkpt>
      <trkpt lat="43.75441" lon="7.14295">
        <ele>582.2</ele>
        <time>2012-12-09T08:29:09Z</time>
      </trkpt>
      <trkpt lat="43.75458" lon="7.14307">
        <ele>585</ele>
        <time>2012-12-09T08:29:23Z</time>
      </trkpt>
      <trkpt lat="43.75465" lon="7.14315">
        <ele>585.8</ele>
        <time>2012-12-09T08:29:30Z</time>
      </trkpt>
      <trkpt lat="43.75474" lon="7.14319">
        <ele>587.2</ele>
        <time>2012-12-09T08:29:35Z</time>
      </trkpt>
      <trkpt lat="43.75483" lon="7.14322">
        <ele>590.9</ele>
        <time>2012-12-09T08:29:41Z</time>
      </trkpt>
      <trkpt lat="43.75494" lon="7.14328">
        <ele>592.3</ele>
        <time>2012-12-09T08:29:49Z</time>
      </trkpt>
      <trkpt lat="43.75505" lon="7.14332">
        <ele>593.3</ele>
        <time>2012-12-09T08:29:57Z</time>
      </trkpt>
      <trkpt lat="43.75512" lon="7.14333">
        <ele>594.9</ele>
        <time>2012-12-09T08:30:03Z</time>
      </trkpt>
      <trkpt lat="43.7552" lon="7.14336">
        <ele>595.2</ele>
        <time>2012-12-09T08:30:10Z</time>
      </trkpt>
      <trkpt lat="43.75531" lon="7.14338">
        <ele>597.3</ele>
        <time>2012-12-09T08:30:18Z</time>
      </trkpt>
      <trkpt lat="43.75537" lon="7.14333">
        <ele>603.4</ele>
        <time>2012-12-09T08:30:23Z</time>
      </trkpt>
      <trkpt lat="43.75546" lon="7.14332">
        <ele>608.1</ele>
        <time>2012-12-09T08:30:31Z</time>
      </trkpt>
      <trkpt lat="43.75553" lon="7.14329">
        <ele>610.1</ele>
        <time>2012-12-09T08:30:39Z</time>
      </trkpt>
      <trkpt lat="43.75552" lon="7.14328">
        <ele>606.8</ele>
        <time>2012-12-09T08:31:23Z</time>
      </trkpt>
      <trkpt lat="43.75579" lon="7.14331">
        <ele>607.4</ele>
        <time>2012-12-09T08:31:40Z</time>
      </trkpt>
      <trkpt lat="43.75599" lon="7.14332">
        <ele>616.6</ele>
        <time>2012-12-09T08:31:53Z</time>
      </trkpt>
      <trkpt lat="43.75604" lon="7.14331">
        <ele>620.1</ele>
        <time>2012-12-09T08:31:58Z</time>
      </trkpt>
      <trkpt lat="43.75604" lon="7.14331">
        <ele>620.1</ele>
        <time>2012-12-09T08:31:59Z</time>
      </trkpt>
      <trkpt lat="43.75608" lon="7.14328">
        <ele>616.3</ele>
        <time>2012-12-09T08:32:05Z</time>
      </trkpt>
      <trkpt lat="43.75638" lon="7.14331">
        <ele>618.4</ele>
        <time>2012-12-09T08:32:47Z</time>
      </trkpt>
      <trkpt lat="43.75646" lon="7.14329">
        <ele>618.5</ele>
        <time>2012-12-09T08:32:57Z</time>
      </trkpt>
      <trkpt lat="43.75652" lon="7.14329">
        <ele>621.9</ele>
        <time>2012-12-09T08:33:05Z</time>
      </trkpt>
      <trkpt lat="43.75654" lon="7.14328">
        <ele>621.4</ele>
        <time>2012-12-09T08:33:07Z</time>
      </trkpt>
      <trkpt lat="43.75661" lon="7.14329">
        <ele>620.9</ele>
        <time>2012-12-09T08:33:16Z</time>
      </trkpt>
      <trkpt lat="43.75681" lon="7.14324">
        <ele>618.8</ele>
        <time>2012-12-09T08:33:40Z</time>
      </trkpt>
      <trkpt lat="43.75694" lon="7.14318">
        <ele>622</ele>
        <time>2012-12-09T08:33:55Z</time>
      </trkpt>
      <trkpt lat="43.75697" lon="7.14318">
        <ele>624.7</ele>
        <time>2012-12-09T08:33:59Z</time>
      </trkpt>
      <trkpt lat="43.75699" lon="7.14319">
        <ele>628.7</ele>
        <time>2012-12-09T08:34:03Z</time>
      </trkpt>
      <trkpt lat="43.75705" lon="7.14321">
        <ele>635</ele>
        <time>2012-12-09T08:34:10Z</time>
      </trkpt>
      <trkpt lat="43.75712" lon="7.14321">
        <ele>633.6</ele>
        <time>2012-12-09T08:34:19Z</time>
      </trkpt>
      <trkpt lat="43.75723" lon="7.14324">
        <ele>632</ele>
        <time>2012-12-09T08:34:26Z</time>
      </trkpt>
      <trkpt lat="43.75726" lon="7.14324">
        <ele>631</ele>
        <time>2012-12-09T08:34:27Z</time>
      </trkpt>
      <trkpt lat="43.75745" lon="7.1433">
        <ele>632</ele>
        <time>2012-12-09T08:34:38Z</time>
      </trkpt>
      <trkpt lat="43.75747" lon="7.1433">
        <ele>633.6</ele>
        <time>2012-12-09T08:34:45Z</time>
      </trkpt>
      <trkpt lat="43.75746" lon="7.1433">
        <ele>638.1</ele>
        <time>2012-12-09T08:35:12Z</time>
      </trkpt>
      <trkpt lat="43.75756" lon="7.14332">
        <ele>639.4</ele>
        <time>2012-12-09T08:35:19Z</time>
      </trkpt>
      <trkpt lat="43.7577" lon="7.14333">
        <ele>638.8</ele>
        <time>2012-12-09T08:35:26Z</time>
      </trkpt>
      <trkpt lat="43.75796" lon="7.1433">
        <ele>640.5</ele>
        <time>2012-12-09T08:35:40Z</time>
      </trkpt>
      <trkpt lat="43.75828" lon="7.14315">
        <ele>640.5</ele>
        <time>2012-12-09T08:36:02Z</time>
      </trkpt>
      <trkpt lat="43.75828" lon="7.14315">
        <ele>640.8</ele>
        <time>2012-12-09T08:36:04Z</time>
      </trkpt>
      <trkpt lat="43.75834" lon="7.1431">
        <ele>642.6</ele>
        <time>2012-12-09T08:36:11Z</time>
      </trkpt>
      <trkpt lat="43.7584" lon="7.14309">
        <ele>643.5</ele>
        <time>2012-12-09T08:36:17Z</time>
      </trkpt>
      <trkpt lat="43.75861" lon="7.14304">
        <ele>644.8</ele>
        <time>2012-12-09T08:36:27Z</time>
      </trkpt>
      <trkpt lat="43.75884" lon="7.14302">
        <ele>648.6</ele>
        <time>2012-12-09T08:36:40Z</time>
      </trkpt>
      <trkpt lat="43.75885" lon="7.14301">
        <ele>647.8</ele>
        <time>2012-12-09T08:36:42Z</time>
      </trkpt>
      <trkpt lat="43.7589" lon="7.14302">
        <ele>644.9</ele>
        <time>2012-12-09T08:36:48Z</time>
      </trkpt>
      <trkpt lat="43.75893" lon="7.14302">
        <ele>641.8</ele>
        <time>2012-12-09T08:36:54Z</time>
      </trkpt>
      <trkpt lat="43.75897" lon="7.14302">
        <ele>639.6</ele>
        <time>2012-12-09T08:37:03Z</time>
      </trkpt>
      <trkpt lat="43.75904" lon="7.14304">
        <ele>638</ele>
        <time>2012-12-09T08:37:10Z</time>
      </trkpt>
      <trkpt lat="43.75907" lon="7.14303">
        <ele>635.7</ele>
        <time>2012-12-09T08:37:14Z</time>
      </trkpt>
      <trkpt lat="43.7591" lon="7.14302">
        <ele>636.7</ele>
        <time>2012-12-09T08:37:21Z</time>
      </trkpt>
      <trkpt lat="43.7591" lon="7.14299">
        <ele>639.7</ele>
        <time>2012-12-09T08:37:53Z</time>
      </trkpt>
      <trkpt lat="43.75918" lon="7.14304">
        <ele>644.9</ele>
        <time>2012-12-09T08:37:58Z</time>
      </trkpt>
      <trkpt lat="43.75935" lon="7.14309">
        <ele>648.9</ele>
        <time>2012-12-09T08:38:06Z</time>
      </trkpt>
      <trkpt lat="43.75949" lon="7.14311">
        <ele>651.1</ele>
        <time>2012-12-09T08:38:12Z</time>
      </trkpt>
      <trkpt lat="43.75968" lon="7.1431">
        <ele>654.9</ele>
        <time>2012-12-09T08:38:22Z</time>
      </trkpt>
      <trkpt lat="43.76019" lon="7.14317">
        <ele>663</ele>
        <time>2012-12-09T08:38:53Z</time>
      </trkpt>
      <trkpt lat="43.76046" lon="7.14333">
        <ele>662.8</ele>
        <time>2012-12-09T08:39:08Z</time>
      </trkpt>
      <trkpt lat="43.76096" lon="7.14369">
        <ele>666.6</ele>
        <time>2012-12-09T08:39:37Z</time>
      </trkpt>
      <trkpt lat="43.76109" lon="7.14381">
        <ele>667.4</ele>
        <time>2012-12-09T08:39:44Z</time>
      </trkpt>
      <trkpt lat="43.76133" lon="7.14394">
        <ele>668.1</ele>
        <time>2012-12-09T08:39:57Z</time>
      </trkpt>
      <trkpt lat="43.76154" lon="7.14409">
        <ele>670.9</ele>
        <time>2012-12-09T08:40:10Z</time>
      </trkpt>
      <trkpt lat="43.76176" lon="7.14417">
        <ele>672</ele>
        <time>2012-12-09T08:40:23Z</time>
      </trkpt>
      <trkpt lat="43.76218" lon="7.14427">
        <ele>672.6</ele>
        <time>2012-12-09T08:40:46Z</time>
      </trkpt>
      <trkpt lat="43.76245" lon="7.14438">
        <ele>672.3</ele>
        <time>2012-12-09T08:41:01Z</time>
      </trkpt>
      <trkpt lat="43.76291" lon="7.14448">
        <ele>676</ele>
        <time>2012-12-09T08:41:26Z</time>
      </trkpt>
      <trkpt lat="43.76303" lon="7.14453">
        <ele>677.5</ele>
        <time>2012-12-09T08:41:33Z</time>
      </trkpt>
      <trkpt lat="43.76322" lon="7.14458">
        <ele>677.9</ele>
        <time>2012-12-09T08:41:42Z</time>
      </trkpt>
      <trkpt lat="43.76333" lon="7.14458">
        <ele>678.7</ele>
        <time>2012-12-09T08:41:48Z</time>
      </trkpt>
      <trkpt lat="43.76347" lon="7.14457">
        <ele>680</ele>
        <time>2012-12-09T08:41:56Z</time>
      </trkpt>
      <trkpt lat="43.76363" lon="7.14452">
        <ele>682.3</ele>
        <time>2012-12-09T08:42:04Z</time>
      </trkpt>
      <trkpt lat="43.76377" lon="7.1445">
        <ele>686</ele>
        <time>2012-12-09T08:42:12Z</time>
      </trkpt>
      <trkpt lat="43.76387" lon="7.14454">
        <ele>686.7</ele>
        <time>2012-12-09T08:42:18Z</time>
      </trkpt>
      <trkpt lat="43.76403" lon="7.14454">
        <ele>687.4</ele>
        <time>2012-12-09T08:42:27Z</time>
      </trkpt>
      <trkpt lat="43.76419" lon="7.14452">
        <ele>690.1</ele>
        <time>2012-12-09T08:42:36Z</time>
      </trkpt>
      <trkpt lat="43.7643" lon="7.14456">
        <ele>690.8</ele>
        <time>2012-12-09T08:42:43Z</time>
      </trkpt>
      <trkpt lat="43.76443" lon="7.14462">
        <ele>688.7</ele>
        <time>2012-12-09T08:42:51Z</time>
      </trkpt>
      <trkpt lat="43.7647" lon="7.14466">
        <ele>688.9</ele>
        <time>2012-12-09T08:43:08Z</time>
      </trkpt>
      <trkpt lat="43.76483" lon="7.14464">
        <ele>691.5</ele>
        <time>2012-12-09T08:43:17Z</time>
      </trkpt>
      <trkpt lat="43.76494" lon="7.14462">
        <ele>694.8</ele>
        <time>2012-12-09T08:43:24Z</time>
      </trkpt>
      <trkpt lat="43.76502" lon="7.14458">
        <ele>698.7</ele>
        <time>2012-12-09T08:43:30Z</time>
      </trkpt>
      <trkpt lat="43.7653" lon="7.14443">
        <ele>704.9</ele>
        <time>2012-12-09T08:43:52Z</time>
      </trkpt>
      <trkpt lat="43.76535" lon="7.14442">
        <ele>705.4</ele>
        <time>2012-12-09T08:43:56Z</time>
      </trkpt>
      <trkpt lat="43.76543" lon="7.14438">
        <ele>707.9</ele>
        <time>2012-12-09T08:44:01Z</time>
      </trkpt>
      <trkpt lat="43.76548" lon="7.14438">
        <ele>707.8</ele>
        <time>2012-12-09T08:44:05Z</time>
      </trkpt>
      <trkpt lat="43.76587" lon="7.14438">
        <ele>705.2</ele>
        <time>2012-12-09T08:44:31Z</time>
      </trkpt>
      <trkpt lat="43.766" lon="7.14434">
        <ele>709</ele>
        <time>2012-12-09T08:44:39Z</time>
      </trkpt>
      <trkpt lat="43.76614" lon="7.14433">
        <ele>711.4</ele>
        <time>2012-12-09T08:44:48Z</time>
      </trkpt>
      <trkpt lat="43.76638" lon="7.14434">
        <ele>711.5</ele>
        <time>2012-12-09T08:45:02Z</time>
      </trkpt>
      <trkpt lat="43.76658" lon="7.14437">
        <ele>711.5</ele>
        <time>2012-12-09T08:45:15Z</time>
      </trkpt>
      <trkpt lat="43.7667" lon="7.14438">
        <ele>713.9</ele>
        <time>2012-12-09T08:45:23Z</time>
      </trkpt>
      <trkpt lat="43.76673" lon="7.1444">
        <ele>714</ele>
        <time>2012-12-09T08:45:26Z</time>
      </trkpt>
      <trkpt lat="43.76693" lon="7.14445">
        <ele>716.7</ele>
        <time>2012-12-09T08:45:39Z</time>
      </trkpt>
      <trkpt lat="43.7673" lon="7.14461">
        <ele>722.4</ele>
        <time>2012-12-09T08:46:08Z</time>
      </trkpt>
      <trkpt lat="43.76746" lon="7.14471">
        <ele>724.3</ele>
        <time>2012-12-09T08:46:22Z</time>
      </trkpt>
      <trkpt lat="43.76755" lon="7.14464">
        <ele>726.6</ele>
        <time>2012-12-09T08:46:31Z</time>
      </trkpt>
      <trkpt lat="43.76757" lon="7.14461">
        <ele>727.9</ele>
        <time>2012-12-09T08:46:33Z</time>
      </trkpt>
      <trkpt lat="43.76766" lon="7.14463">
        <ele>730.7</ele>
        <time>2012-12-09T08:46:40Z</time>
      </trkpt>
      <trkpt lat="43.7678" lon="7.14472">
        <ele>730.4</ele>
        <time>2012-12-09T08:46:51Z</time>
      </trkpt>
      <trkpt lat="43.7679" lon="7.14474">
        <ele>730.3</ele>
        <time>2012-12-09T08:46:59Z</time>
      </trkpt>
      <trkpt lat="43.76815" lon="7.14478">
        <ele>732.3</ele>
        <time>2012-12-09T08:47:17Z</time>
      </trkpt>
      <trkpt lat="43.76824" lon="7.14478">
        <ele>734.2</ele>
        <time>2012-12-09T08:47:24Z</time>
      </trkpt>
      <trkpt lat="43.76839" lon="7.14481">
        <ele>737.7</ele>
        <time>2012-12-09T08:47:38Z</time>
      </trkpt>
      <trkpt lat="43.76848" lon="7.1448">
        <ele>740.1</ele>
        <time>2012-12-09T08:47:44Z</time>
      </trkpt>
      <trkpt lat="43.76869" lon="7.14485">
        <ele>741.9</ele>
        <time>2012-12-09T08:47:57Z</time>
      </trkpt>
      <trkpt lat="43.76895" lon="7.14487">
        <ele>741.7</ele>
        <time>2012-12-09T08:48:14Z</time>
      </trkpt>
      <trkpt lat="43.76906" lon="7.14486">
        <ele>742.3</ele>
        <time>2012-12-09T08:48:21Z</time>
      </trkpt>
      <trkpt lat="43.76948" lon="7.14475">
        <ele>750.8</ele>
        <time>2012-12-09T08:48:50Z</time>
      </trkpt>
      <trkpt lat="43.76966" lon="7.14478">
        <ele>750.2</ele>
        <time>2012-12-09T08:49:00Z</time>
      </trkpt>
      <trkpt lat="43.76969" lon="7.14487">
        <ele>749</ele>
        <time>2012-12-09T08:49:05Z</time>
      </trkpt>
      <trkpt lat="43.76967" lon="7.14491">
        <ele>746.8</ele>
        <time>2012-12-09T08:49:08Z</time>
      </trkpt>
      <trkpt lat="43.76965" lon="7.14494">
        <ele>746.1</ele>
        <time>2012-12-09T08:49:14Z</time>
      </trkpt>
      <trkpt lat="43.76963" lon="7.14497">
        <ele>737.5</ele>
        <time>2012-12-09T08:49:29Z</time>
      </trkpt>
      <trkpt lat="43.76958" lon="7.14502">
        <ele>738.9</ele>
        <time>2012-12-09T08:49:35Z</time>
      </trkpt>
      <trkpt lat="43.76954" lon="7.14504">
        <ele>738.6</ele>
        <time>2012-12-09T08:49:41Z</time>
      </trkpt>
      <trkpt lat="43.7695" lon="7.14508">
        <ele>738</ele>
        <time>2012-12-09T08:49:57Z</time>
      </trkpt>
      <trkpt lat="43.76947" lon="7.1451">
        <ele>737.8</ele>
        <time>2012-12-09T08:50:04Z</time>
      </trkpt>
      <trkpt lat="43.76934" lon="7.14521">
        <ele>738.8</ele>
        <time>2012-12-09T08:50:21Z</time>
      </trkpt>
      <trkpt lat="43.76931" lon="7.14523">
        <ele>739.3</ele>
        <time>2012-12-09T08:50:23Z</time>
      </trkpt>
      <trkpt lat="43.76931" lon="7.14526">
        <ele>740.7</ele>
        <time>2012-12-09T08:50:27Z</time>
      </trkpt>
      <trkpt lat="43.76931" lon="7.14529">
        <ele>743.8</ele>
        <time>2012-12-09T08:50:31Z</time>
      </trkpt>
      <trkpt lat="43.76931" lon="7.14534">
        <ele>746.9</ele>
        <time>2012-12-09T08:50:37Z</time>
      </trkpt>
      <trkpt lat="43.76934" lon="7.14536">
        <ele>748.3</ele>
        <time>2012-12-09T08:50:41Z</time>
      </trkpt>
      <trkpt lat="43.76941" lon="7.14532">
        <ele>750.2</ele>
        <time>2012-12-09T08:50:49Z</time>
      </trkpt>
      <trkpt lat="43.76942" lon="7.14533">
        <ele>750.6</ele>
        <time>2012-12-09T08:50:51Z</time>
      </trkpt>
      <trkpt lat="43.76944" lon="7.14532">
        <ele>751.5</ele>
        <time>2012-12-09T08:50:53Z</time>
      </trkpt>
      <trkpt lat="43.76945" lon="7.14533">
        <ele>752.4</ele>
        <time>2012-12-09T08:51:00Z</time>
      </trkpt>
      <trkpt lat="43.76949" lon="7.14536">
        <ele>753.1</ele>
        <time>2012-12-09T08:51:06Z</time>
      </trkpt>
      <trkpt lat="43.76951" lon="7.14537">
        <ele>752.2</ele>
        <time>2012-12-09T08:51:14Z</time>
      </trkpt>
      <trkpt lat="43.7695" lon="7.14537">
        <ele>754.7</ele>
        <time>2012-12-09T08:51:29Z</time>
      </trkpt>
      <trkpt lat="43.76943" lon="7.14541">
        <ele>753.6</ele>
        <time>2012-12-09T08:51:36Z</time>
      </trkpt>
      <trkpt lat="43.76941" lon="7.14544">
        <ele>754.3</ele>
        <time>2012-12-09T08:51:39Z</time>
      </trkpt>
      <trkpt lat="43.76942" lon="7.14547">
        <ele>755.1</ele>
        <time>2012-12-09T08:51:42Z</time>
      </trkpt>
      <trkpt lat="43.76944" lon="7.14552">
        <ele>756.4</ele>
        <time>2012-12-09T08:51:49Z</time>
      </trkpt>
      <trkpt lat="43.76943" lon="7.14559">
        <ele>758.6</ele>
        <time>2012-12-09T08:51:57Z</time>
      </trkpt>
      <trkpt lat="43.76945" lon="7.14564">
        <ele>760.9</ele>
        <time>2012-12-09T08:52:05Z</time>
      </trkpt>
      <trkpt lat="43.76943" lon="7.1457">
        <ele>760</ele>
        <time>2012-12-09T08:52:14Z</time>
      </trkpt>
      <trkpt lat="43.76943" lon="7.14569">
        <ele>759.4</ele>
        <time>2012-12-09T08:52:23Z</time>
      </trkpt>
      <trkpt lat="43.76943" lon="7.14569">
        <ele>759.6</ele>
        <time>2012-12-09T08:52:28Z</time>
      </trkpt>
      <trkpt lat="43.76928" lon="7.14579">
        <ele>762.4</ele>
        <time>2012-12-09T08:52:48Z</time>
      </trkpt>
      <trkpt lat="43.76919" lon="7.14587">
        <ele>764.2</ele>
        <time>2012-12-09T08:52:55Z</time>
      </trkpt>
      <trkpt lat="43.76908" lon="7.14601">
        <ele>768.1</ele>
        <time>2012-12-09T08:53:09Z</time>
      </trkpt>
      <trkpt lat="43.76908" lon="7.14601">
        <ele>766.7</ele>
        <time>2012-12-09T08:53:11Z</time>
      </trkpt>
      <trkpt lat="43.76902" lon="7.14604">
        <ele>764.9</ele>
        <time>2012-12-09T08:53:19Z</time>
      </trkpt>
      <trkpt lat="43.76889" lon="7.14616">
        <ele>764.2</ele>
        <time>2012-12-09T08:53:37Z</time>
      </trkpt>
      <trkpt lat="43.76888" lon="7.14618">
        <ele>763.2</ele>
        <time>2012-12-09T08:53:44Z</time>
      </trkpt>
      <trkpt lat="43.7688" lon="7.14625">
        <ele>764.9</ele>
        <time>2012-12-09T08:53:51Z</time>
      </trkpt>
      <trkpt lat="43.76873" lon="7.14633">
        <ele>770.9</ele>
        <time>2012-12-09T08:53:58Z</time>
      </trkpt>
      <trkpt lat="43.76866" lon="7.14644">
        <ele>776.4</ele>
        <time>2012-12-09T08:54:06Z</time>
      </trkpt>
      <trkpt lat="43.7685" lon="7.1466">
        <ele>782.2</ele>
        <time>2012-12-09T08:54:22Z</time>
      </trkpt>
      <trkpt lat="43.76844" lon="7.14671">
        <ele>785.8</ele>
        <time>2012-12-09T08:54:30Z</time>
      </trkpt>
      <trkpt lat="43.76838" lon="7.1468">
        <ele>788.2</ele>
        <time>2012-12-09T08:54:37Z</time>
      </trkpt>
      <trkpt lat="43.76828" lon="7.14684">
        <ele>786.9</ele>
        <time>2012-12-09T08:54:44Z</time>
      </trkpt>
      <trkpt lat="43.76822" lon="7.14683">
        <ele>785.3</ele>
        <time>2012-12-09T08:54:49Z</time>
      </trkpt>
      <trkpt lat="43.76816" lon="7.14682">
        <ele>785.2</ele>
        <time>2012-12-09T08:54:56Z</time>
      </trkpt>
      <trkpt lat="43.76807" lon="7.14682">
        <ele>783.6</ele>
        <time>2012-12-09T08:55:04Z</time>
      </trkpt>
      <trkpt lat="43.76799" lon="7.1468">
        <ele>783.6</ele>
        <time>2012-12-09T08:55:12Z</time>
      </trkpt>
      <trkpt lat="43.76797" lon="7.14679">
        <ele>785.1</ele>
        <time>2012-12-09T08:55:21Z</time>
      </trkpt>
      <trkpt lat="43.76775" lon="7.14674">
        <ele>788</ele>
        <time>2012-12-09T08:55:34Z</time>
      </trkpt>
      <trkpt lat="43.76758" lon="7.14672">
        <ele>791</ele>
        <time>2012-12-09T08:55:45Z</time>
      </trkpt>
      <trkpt lat="43.76732" lon="7.14678">
        <ele>794.6</ele>
        <time>2012-12-09T08:56:04Z</time>
      </trkpt>
      <trkpt lat="43.76721" lon="7.14685">
        <ele>798.8</ele>
        <time>2012-12-09T08:56:16Z</time>
      </trkpt>
      <trkpt lat="43.76693" lon="7.14692">
        <ele>799.5</ele>
        <time>2012-12-09T08:56:34Z</time>
      </trkpt>
      <trkpt lat="43.76688" lon="7.14695">
        <ele>800.3</ele>
        <time>2012-12-09T08:56:39Z</time>
      </trkpt>
      <trkpt lat="43.76682" lon="7.14697">
        <ele>800.4</ele>
        <time>2012-12-09T08:56:46Z</time>
      </trkpt>
      <trkpt lat="43.76676" lon="7.147">
        <ele>800.5</ele>
        <time>2012-12-09T08:56:53Z</time>
      </trkpt>
      <trkpt lat="43.76668" lon="7.14702">
        <ele>799.7</ele>
        <time>2012-12-09T08:57:00Z</time>
      </trkpt>
      <trkpt lat="43.76663" lon="7.14706">
        <ele>798.3</ele>
        <time>2012-12-09T08:57:07Z</time>
      </trkpt>
      <trkpt lat="43.76659" lon="7.14712">
        <ele>799.1</ele>
        <time>2012-12-09T08:57:23Z</time>
      </trkpt>
      <trkpt lat="43.7665" lon="7.14719">
        <ele>800.5</ele>
        <time>2012-12-09T08:57:29Z</time>
      </trkpt>
      <trkpt lat="43.76643" lon="7.14727">
        <ele>803.2</ele>
        <time>2012-12-09T08:57:35Z</time>
      </trkpt>
      <trkpt lat="43.76631" lon="7.14734">
        <ele>803.1</ele>
        <time>2012-12-09T08:57:42Z</time>
      </trkpt>
      <trkpt lat="43.76624" lon="7.1474">
        <ele>803.2</ele>
        <time>2012-12-09T08:57:48Z</time>
      </trkpt>
      <trkpt lat="43.76621" lon="7.14745">
        <ele>804.7</ele>
        <time>2012-12-09T08:57:55Z</time>
      </trkpt>
      <trkpt lat="43.76616" lon="7.14751">
        <ele>804.8</ele>
        <time>2012-12-09T08:58:02Z</time>
      </trkpt>
      <trkpt lat="43.76614" lon="7.14751">
        <ele>805.5</ele>
        <time>2012-12-09T08:58:08Z</time>
      </trkpt>
      <trkpt lat="43.76609" lon="7.14756">
        <ele>806.2</ele>
        <time>2012-12-09T08:58:13Z</time>
      </trkpt>
      <trkpt lat="43.76598" lon="7.14764">
        <ele>806.2</ele>
        <time>2012-12-09T08:58:21Z</time>
      </trkpt>
      <trkpt lat="43.76585" lon="7.14764">
        <ele>805</ele>
        <time>2012-12-09T08:58:26Z</time>
      </trkpt>
      <trkpt lat="43.76577" lon="7.14765">
        <ele>805.3</ele>
        <time>2012-12-09T08:58:31Z</time>
      </trkpt>
      <trkpt lat="43.76568" lon="7.14765">
        <ele>805.7</ele>
        <time>2012-12-09T08:58:36Z</time>
      </trkpt>
      <trkpt lat="43.76558" lon="7.14768">
        <ele>806.3</ele>
        <time>2012-12-09T08:58:42Z</time>
      </trkpt>
      <trkpt lat="43.76555" lon="7.14771">
        <ele>806.7</ele>
        <time>2012-12-09T08:58:46Z</time>
      </trkpt>
      <trkpt lat="43.7655" lon="7.14773">
        <ele>808.2</ele>
        <time>2012-12-09T08:58:59Z</time>
      </trkpt>
      <trkpt lat="43.7655" lon="7.14775">
        <ele>808.5</ele>
        <time>2012-12-09T08:59:04Z</time>
      </trkpt>
      <trkpt lat="43.76546" lon="7.1478">
        <ele>809</ele>
        <time>2012-12-09T08:59:10Z</time>
      </trkpt>
      <trkpt lat="43.76535" lon="7.14789">
        <ele>811.2</ele>
        <time>2012-12-09T08:59:17Z</time>
      </trkpt>
      <trkpt lat="43.76518" lon="7.14806">
        <ele>814.5</ele>
        <time>2012-12-09T08:59:29Z</time>
      </trkpt>
      <trkpt lat="43.76509" lon="7.14812">
        <ele>815.4</ele>
        <time>2012-12-09T08:59:34Z</time>
      </trkpt>
      <trkpt lat="43.76492" lon="7.14828">
        <ele>817.3</ele>
        <time>2012-12-09T08:59:46Z</time>
      </trkpt>
      <trkpt lat="43.76478" lon="7.14834">
        <ele>816.3</ele>
        <time>2012-12-09T08:59:53Z</time>
      </trkpt>
      <trkpt lat="43.7647" lon="7.14843">
        <ele>817.7</ele>
        <time>2012-12-09T08:59:59Z</time>
      </trkpt>
      <trkpt lat="43.76466" lon="7.14847">
        <ele>818.3</ele>
        <time>2012-12-09T09:00:02Z</time>
      </trkpt>
      <trkpt lat="43.76457" lon="7.14858">
        <ele>818.2</ele>
        <time>2012-12-09T09:00:09Z</time>
      </trkpt>
      <trkpt lat="43.76448" lon="7.14865">
        <ele>818</ele>
        <time>2012-12-09T09:00:13Z</time>
      </trkpt>
      <trkpt lat="43.76438" lon="7.14878">
        <ele>819.3</ele>
        <time>2012-12-09T09:00:19Z</time>
      </trkpt>
      <trkpt lat="43.76432" lon="7.14879">
        <ele>819.3</ele>
        <time>2012-12-09T09:00:21Z</time>
      </trkpt>
      <trkpt lat="43.76422" lon="7.14888">
        <ele>819.5</ele>
        <time>2012-12-09T09:00:27Z</time>
      </trkpt>
      <trkpt lat="43.76404" lon="7.14896">
        <ele>820.1</ele>
        <time>2012-12-09T09:00:36Z</time>
      </trkpt>
      <trkpt lat="43.76402" lon="7.14898">
        <ele>820.8</ele>
        <time>2012-12-09T09:00:40Z</time>
      </trkpt>
      <trkpt lat="43.76403" lon="7.14899">
        <ele>820.5</ele>
        <time>2012-12-09T09:00:47Z</time>
      </trkpt>
      <trkpt lat="43.76399" lon="7.14895">
        <ele>821.7</ele>
        <time>2012-12-09T09:03:32Z</time>
      </trkpt>
      <trkpt lat="43.76398" lon="7.14895">
        <ele>821</ele>
        <time>2012-12-09T09:03:43Z</time>
      </trkpt>
      <trkpt lat="43.76388" lon="7.14897">
        <ele>820.1</ele>
        <time>2012-12-09T09:03:49Z</time>
      </trkpt>
      <trkpt lat="43.76385" lon="7.14901">
        <ele>820.1</ele>
        <time>2012-12-09T09:03:51Z</time>
      </trkpt>
      <trkpt lat="43.76366" lon="7.14909">
        <ele>819.2</ele>
        <time>2012-12-09T09:03:59Z</time>
      </trkpt>
      <trkpt lat="43.76341" lon="7.14915">
        <ele>818.1</ele>
        <time>2012-12-09T09:04:06Z</time>
      </trkpt>
      <trkpt lat="43.76323" lon="7.14924">
        <ele>817.8</ele>
        <time>2012-12-09T09:04:11Z</time>
      </trkpt>
      <trkpt lat="43.76313" lon="7.1492">
        <ele>818.5</ele>
        <time>2012-12-09T09:04:15Z</time>
      </trkpt>
      <trkpt lat="43.76307" lon="7.14922">
        <ele>818.6</ele>
        <time>2012-12-09T09:04:18Z</time>
      </trkpt>
      <trkpt lat="43.76295" lon="7.14921">
        <ele>819.2</ele>
        <time>2012-12-09T09:04:22Z</time>
      </trkpt>
      <trkpt lat="43.76287" lon="7.14922">
        <ele>819.7</ele>
        <time>2012-12-09T09:04:24Z</time>
      </trkpt>
      <trkpt lat="43.76262" lon="7.14927">
        <ele>823.7</ele>
        <time>2012-12-09T09:04:37Z</time>
      </trkpt>
      <trkpt lat="43.76262" lon="7.14926">
        <ele>823.4</ele>
        <time>2012-12-09T09:04:47Z</time>
      </trkpt>
      <trkpt lat="43.76255" lon="7.14927">
        <ele>824.4</ele>
        <time>2012-12-09T09:04:55Z</time>
      </trkpt>
      <trkpt lat="43.76247" lon="7.1493">
        <ele>824.3</ele>
        <time>2012-12-09T09:05:02Z</time>
      </trkpt>
      <trkpt lat="43.76237" lon="7.14928">
        <ele>825</ele>
        <time>2012-12-09T09:05:12Z</time>
      </trkpt>
      <trkpt lat="43.76236" lon="7.14927">
        <ele>825.1</ele>
        <time>2012-12-09T09:05:13Z</time>
      </trkpt>
      <trkpt lat="43.76232" lon="7.1493">
        <ele>826</ele>
        <time>2012-12-09T09:05:19Z</time>
      </trkpt>
      <trkpt lat="43.76233" lon="7.1493">
        <ele>826.8</ele>
        <time>2012-12-09T09:05:23Z</time>
      </trkpt>
      <trkpt lat="43.76224" lon="7.14927">
        <ele>828.7</ele>
        <time>2012-12-09T09:05:29Z</time>
      </trkpt>
      <trkpt lat="43.76215" lon="7.14921">
        <ele>832.4</ele>
        <time>2012-12-09T09:05:36Z</time>
      </trkpt>
      <trkpt lat="43.76205" lon="7.14913">
        <ele>835.1</ele>
        <time>2012-12-09T09:05:43Z</time>
      </trkpt>
      <trkpt lat="43.76201" lon="7.14908">
        <ele>835.8</ele>
        <time>2012-12-09T09:05:46Z</time>
      </trkpt>
      <trkpt lat="43.76197" lon="7.14897">
        <ele>835.8</ele>
        <time>2012-12-09T09:05:52Z</time>
      </trkpt>
      <trkpt lat="43.76191" lon="7.14888">
        <ele>835.7</ele>
        <time>2012-12-09T09:05:56Z</time>
      </trkpt>
      <trkpt lat="43.76182" lon="7.14882">
        <ele>835.8</ele>
        <time>2012-12-09T09:06:00Z</time>
      </trkpt>
      <trkpt lat="43.76135" lon="7.14889">
        <ele>835.6</ele>
        <time>2012-12-09T09:06:14Z</time>
      </trkpt>
      <trkpt lat="43.76109" lon="7.14887">
        <ele>837.4</ele>
        <time>2012-12-09T09:06:27Z</time>
      </trkpt>
      <trkpt lat="43.76097" lon="7.14883">
        <ele>837.3</ele>
        <time>2012-12-09T09:06:34Z</time>
      </trkpt>
      <trkpt lat="43.76091" lon="7.14885">
        <ele>837.2</ele>
        <time>2012-12-09T09:06:38Z</time>
      </trkpt>
      <trkpt lat="43.76081" lon="7.14875">
        <ele>836.5</ele>
        <time>2012-12-09T09:06:47Z</time>
      </trkpt>
      <trkpt lat="43.76051" lon="7.14861">
        <ele>831.5</ele>
        <time>2012-12-09T09:07:07Z</time>
      </trkpt>
      <trkpt lat="43.76024" lon="7.14858">
        <ele>827.6</ele>
        <time>2012-12-09T09:07:12Z</time>
      </trkpt>
      <trkpt lat="43.7601" lon="7.14845">
        <ele>825.4</ele>
        <time>2012-12-09T09:07:15Z</time>
      </trkpt>
      <trkpt lat="43.76003" lon="7.14841">
        <ele>824.7</ele>
        <time>2012-12-09T09:07:17Z</time>
      </trkpt>
      <trkpt lat="43.75986" lon="7.14847">
        <ele>821.6</ele>
        <time>2012-12-09T09:07:23Z</time>
      </trkpt>
      <trkpt lat="43.75982" lon="7.14852">
        <ele>820.8</ele>
        <time>2012-12-09T09:07:25Z</time>
      </trkpt>
      <trkpt lat="43.75964" lon="7.14865">
        <ele>819.3</ele>
        <time>2012-12-09T09:07:30Z</time>
      </trkpt>
      <trkpt lat="43.7595" lon="7.14865">
        <ele>819.2</ele>
        <time>2012-12-09T09:07:34Z</time>
      </trkpt>
      <trkpt lat="43.75932" lon="7.14857">
        <ele>818.1</ele>
        <time>2012-12-09T09:07:39Z</time>
      </trkpt>
      <trkpt lat="43.75924" lon="7.14851">
        <ele>816.9</ele>
        <time>2012-12-09T09:07:42Z</time>
      </trkpt>
      <trkpt lat="43.75905" lon="7.14847">
        <ele>817.2</ele>
        <time>2012-12-09T09:07:49Z</time>
      </trkpt>
      <trkpt lat="43.75903" lon="7.14847">
        <ele>817.2</ele>
        <time>2012-12-09T09:07:50Z</time>
      </trkpt>
      <trkpt lat="43.75875" lon="7.14862">
        <ele>816.2</ele>
        <time>2012-12-09T09:08:01Z</time>
      </trkpt>
      <trkpt lat="43.7586" lon="7.14868">
        <ele>816.5</ele>
        <time>2012-12-09T09:08:06Z</time>
      </trkpt>
      <trkpt lat="43.75853" lon="7.1487">
        <ele>816.1</ele>
        <time>2012-12-09T09:08:08Z</time>
      </trkpt>
      <trkpt lat="43.75838" lon="7.14891">
        <ele>816.8</ele>
        <time>2012-12-09T09:08:16Z</time>
      </trkpt>
      <trkpt lat="43.75814" lon="7.14901">
        <ele>813.8</ele>
        <time>2012-12-09T09:08:23Z</time>
      </trkpt>
      <trkpt lat="43.75801" lon="7.14904">
        <ele>812.3</ele>
        <time>2012-12-09T09:08:26Z</time>
      </trkpt>
      <trkpt lat="43.75783" lon="7.149">
        <ele>811.4</ele>
        <time>2012-12-09T09:08:31Z</time>
      </trkpt>
      <trkpt lat="43.75771" lon="7.14903">
        <ele>809.4</ele>
        <time>2012-12-09T09:08:36Z</time>
      </trkpt>
      <trkpt lat="43.7577" lon="7.14901">
        <ele>806.8</ele>
        <time>2012-12-09T09:08:44Z</time>
      </trkpt>
      <trkpt lat="43.75769" lon="7.14897">
        <ele>806.5</ele>
        <time>2012-12-09T09:08:49Z</time>
      </trkpt>
      <trkpt lat="43.75764" lon="7.14895">
        <ele>806.1</ele>
        <time>2012-12-09T09:08:52Z</time>
      </trkpt>
      <trkpt lat="43.7575" lon="7.14897">
        <ele>804.4</ele>
        <time>2012-12-09T09:08:58Z</time>
      </trkpt>
      <trkpt lat="43.75737" lon="7.14888">
        <ele>805.6</ele>
        <time>2012-12-09T09:09:02Z</time>
      </trkpt>
      <trkpt lat="43.75734" lon="7.14879">
        <ele>805.7</ele>
        <time>2012-12-09T09:09:06Z</time>
      </trkpt>
      <trkpt lat="43.75737" lon="7.14865">
        <ele>805.4</ele>
        <time>2012-12-09T09:09:12Z</time>
      </trkpt>
      <trkpt lat="43.75739" lon="7.14867">
        <ele>803.8</ele>
        <time>2012-12-09T09:09:20Z</time>
      </trkpt>
      <trkpt lat="43.75738" lon="7.14867">
        <ele>810.8</ele>
        <time>2012-12-09T09:12:08Z</time>
      </trkpt>
      <trkpt lat="43.75735" lon="7.14877">
        <ele>810.2</ele>
        <time>2012-12-09T09:12:26Z</time>
      </trkpt>
      <trkpt lat="43.75736" lon="7.1488">
        <ele>810.7</ele>
        <time>2012-12-09T09:12:32Z</time>
      </trkpt>
      <trkpt lat="43.75735" lon="7.14884">
        <ele>809.9</ele>
        <time>2012-12-09T09:12:39Z</time>
      </trkpt>
      <trkpt lat="43.75734" lon="7.14885">
        <ele>810.1</ele>
        <time>2012-12-09T09:12:50Z</time>
      </trkpt>
      <trkpt lat="43.75734" lon="7.14885">
        <ele>809.9</ele>
        <time>2012-12-09T09:13:03Z</time>
      </trkpt>
      <trkpt lat="43.75742" lon="7.14889">
        <ele>810.6</ele>
        <time>2012-12-09T09:13:09Z</time>
      </trkpt>
      <trkpt lat="43.75751" lon="7.14895">
        <ele>813.7</ele>
        <time>2012-12-09T09:13:15Z</time>
      </trkpt>
      <trkpt lat="43.75752" lon="7.14895">
        <ele>814.4</ele>
        <time>2012-12-09T09:13:16Z</time>
      </trkpt>
      <trkpt lat="43.75762" lon="7.14893">
        <ele>817.3</ele>
        <time>2012-12-09T09:13:23Z</time>
      </trkpt>
      <trkpt lat="43.75765" lon="7.14894">
        <ele>817.6</ele>
        <time>2012-12-09T09:13:27Z</time>
      </trkpt>
      <trkpt lat="43.75767" lon="7.14895">
        <ele>817.5</ele>
        <time>2012-12-09T09:13:31Z</time>
      </trkpt>
      <trkpt lat="43.75776" lon="7.14896">
        <ele>819.7</ele>
        <time>2012-12-09T09:13:41Z</time>
      </trkpt>
      <trkpt lat="43.75776" lon="7.14896">
        <ele>819.8</ele>
        <time>2012-12-09T09:13:42Z</time>
      </trkpt>
      <trkpt lat="43.75779" lon="7.14899">
        <ele>818.1</ele>
        <time>2012-12-09T09:13:46Z</time>
      </trkpt>
      <trkpt lat="43.75786" lon="7.14899">
        <ele>818.2</ele>
        <time>2012-12-09T09:13:53Z</time>
      </trkpt>
      <trkpt lat="43.7579" lon="7.14899">
        <ele>818.4</ele>
        <time>2012-12-09T09:13:59Z</time>
      </trkpt>
      <trkpt lat="43.75797" lon="7.14901">
        <ele>820.6</ele>
        <time>2012-12-09T09:14:04Z</time>
      </trkpt>
      <trkpt lat="43.75805" lon="7.149">
        <ele>821.7</ele>
        <time>2012-12-09T09:14:09Z</time>
      </trkpt>
      <trkpt lat="43.75825" lon="7.14894">
        <ele>825.4</ele>
        <time>2012-12-09T09:14:22Z</time>
      </trkpt>
      <trkpt lat="43.7583" lon="7.14891">
        <ele>827.3</ele>
        <time>2012-12-09T09:14:28Z</time>
      </trkpt>
      <trkpt lat="43.75836" lon="7.1489">
        <ele>827.2</ele>
        <time>2012-12-09T09:14:33Z</time>
      </trkpt>
      <trkpt lat="43.75839" lon="7.14888">
        <ele>825.8</ele>
        <time>2012-12-09T09:14:40Z</time>
      </trkpt>
      <trkpt lat="43.75857" lon="7.1487">
        <ele>829.2</ele>
        <time>2012-12-09T09:14:54Z</time>
      </trkpt>
      <trkpt lat="43.75863" lon="7.14868">
        <ele>828.8</ele>
        <time>2012-12-09T09:14:57Z</time>
      </trkpt>
      <trkpt lat="43.75901" lon="7.1485">
        <ele>827.5</ele>
        <time>2012-12-09T09:15:10Z</time>
      </trkpt>
      <trkpt lat="43.75922" lon="7.14848">
        <ele>827.8</ele>
        <time>2012-12-09T09:15:15Z</time>
      </trkpt>
      <trkpt lat="43.75933" lon="7.14855">
        <ele>828.1</ele>
        <time>2012-12-09T09:15:20Z</time>
      </trkpt>
      <trkpt lat="43.75948" lon="7.14864">
        <ele>830.2</ele>
        <time>2012-12-09T09:15:28Z</time>
      </trkpt>
      <trkpt lat="43.75965" lon="7.14866">
        <ele>832.7</ele>
        <time>2012-12-09T09:15:36Z</time>
      </trkpt>
      <trkpt lat="43.75967" lon="7.14866">
        <ele>832.9</ele>
        <time>2012-12-09T09:15:37Z</time>
      </trkpt>
      <trkpt lat="43.7598" lon="7.14856">
        <ele>834.6</ele>
        <time>2012-12-09T09:15:44Z</time>
      </trkpt>
      <trkpt lat="43.75989" lon="7.14848">
        <ele>835.3</ele>
        <time>2012-12-09T09:15:49Z</time>
      </trkpt>
      <trkpt lat="43.75998" lon="7.14842">
        <ele>835.2</ele>
        <time>2012-12-09T09:15:54Z</time>
      </trkpt>
      <trkpt lat="43.76003" lon="7.14841">
        <ele>834.8</ele>
        <time>2012-12-09T09:16:02Z</time>
      </trkpt>
      <trkpt lat="43.76008" lon="7.14842">
        <ele>834.5</ele>
        <time>2012-12-09T09:16:12Z</time>
      </trkpt>
      <trkpt lat="43.76008" lon="7.14842">
        <ele>834.5</ele>
        <time>2012-12-09T09:16:13Z</time>
      </trkpt>
      <trkpt lat="43.76024" lon="7.14858">
        <ele>836.8</ele>
        <time>2012-12-09T09:16:26Z</time>
      </trkpt>
      <trkpt lat="43.76035" lon="7.14859">
        <ele>839.4</ele>
        <time>2012-12-09T09:16:33Z</time>
      </trkpt>
      <trkpt lat="43.76044" lon="7.14858">
        <ele>841.4</ele>
        <time>2012-12-09T09:16:39Z</time>
      </trkpt>
      <trkpt lat="43.76056" lon="7.1486">
        <ele>844.1</ele>
        <time>2012-12-09T09:16:48Z</time>
      </trkpt>
      <trkpt lat="43.76067" lon="7.14865">
        <ele>847.4</ele>
        <time>2012-12-09T09:16:56Z</time>
      </trkpt>
      <trkpt lat="43.7607" lon="7.14866">
        <ele>848.3</ele>
        <time>2012-12-09T09:16:58Z</time>
      </trkpt>
      <trkpt lat="43.76074" lon="7.14871">
        <ele>849.6</ele>
        <time>2012-12-09T09:17:02Z</time>
      </trkpt>
      <trkpt lat="43.76085" lon="7.14874">
        <ele>851.2</ele>
        <time>2012-12-09T09:17:09Z</time>
      </trkpt>
      <trkpt lat="43.76092" lon="7.14881">
        <ele>852.1</ele>
        <time>2012-12-09T09:17:15Z</time>
      </trkpt>
      <trkpt lat="43.761" lon="7.14882">
        <ele>851.6</ele>
        <time>2012-12-09T09:17:20Z</time>
      </trkpt>
      <trkpt lat="43.76111" lon="7.14885">
        <ele>850.6</ele>
        <time>2012-12-09T09:17:25Z</time>
      </trkpt>
      <trkpt lat="43.76139" lon="7.14887">
        <ele>845.6</ele>
        <time>2012-12-09T09:17:32Z</time>
      </trkpt>
      <trkpt lat="43.76174" lon="7.14882">
        <ele>843.6</ele>
        <time>2012-12-09T09:17:39Z</time>
      </trkpt>
      <trkpt lat="43.76183" lon="7.1488">
        <ele>843.9</ele>
        <time>2012-12-09T09:17:42Z</time>
      </trkpt>
      <trkpt lat="43.76191" lon="7.14884">
        <ele>844.7</ele>
        <time>2012-12-09T09:17:48Z</time>
      </trkpt>
      <trkpt lat="43.76196" lon="7.14888">
        <ele>844.1</ele>
        <time>2012-12-09T09:18:36Z</time>
      </trkpt>
      <trkpt lat="43.76201" lon="7.14901">
        <ele>843.9</ele>
        <time>2012-12-09T09:18:41Z</time>
      </trkpt>
      <trkpt lat="43.76208" lon="7.14913">
        <ele>843</ele>
        <time>2012-12-09T09:18:45Z</time>
      </trkpt>
      <trkpt lat="43.76221" lon="7.14922">
        <ele>840.9</ele>
        <time>2012-12-09T09:18:48Z</time>
      </trkpt>
      <trkpt lat="43.76246" lon="7.14927">
        <ele>837.1</ele>
        <time>2012-12-09T09:18:53Z</time>
      </trkpt>
      <trkpt lat="43.76261" lon="7.14925">
        <ele>833</ele>
        <time>2012-12-09T09:18:57Z</time>
      </trkpt>
      <trkpt lat="43.76281" lon="7.1492">
        <ele>828.8</ele>
        <time>2012-12-09T09:19:01Z</time>
      </trkpt>
      <trkpt lat="43.76314" lon="7.14917">
        <ele>824.6</ele>
        <time>2012-12-09T09:19:07Z</time>
      </trkpt>
      <trkpt lat="43.76319" lon="7.14921">
        <ele>824.2</ele>
        <time>2012-12-09T09:19:09Z</time>
      </trkpt>
      <trkpt lat="43.76332" lon="7.14924">
        <ele>823.7</ele>
        <time>2012-12-09T09:19:13Z</time>
      </trkpt>
      <trkpt lat="43.76339" lon="7.14916">
        <ele>824.4</ele>
        <time>2012-12-09T09:19:16Z</time>
      </trkpt>
      <trkpt lat="43.76348" lon="7.14913">
        <ele>824.7</ele>
        <time>2012-12-09T09:19:18Z</time>
      </trkpt>
      <trkpt lat="43.76362" lon="7.1491">
        <ele>824.8</ele>
        <time>2012-12-09T09:19:21Z</time>
      </trkpt>
      <trkpt lat="43.76382" lon="7.14903">
        <ele>824.5</ele>
        <time>2012-12-09T09:19:26Z</time>
      </trkpt>
      <trkpt lat="43.76389" lon="7.14898">
        <ele>824.3</ele>
        <time>2012-12-09T09:19:28Z</time>
      </trkpt>
      <trkpt lat="43.764" lon="7.14895">
        <ele>825</ele>
        <time>2012-12-09T09:19:32Z</time>
      </trkpt>
      <trkpt lat="43.764" lon="7.14904">
        <ele>825.2</ele>
        <time>2012-12-09T09:19:35Z</time>
      </trkpt>
      <trkpt lat="43.76394" lon="7.14933">
        <ele>825</ele>
        <time>2012-12-09T09:19:44Z</time>
      </trkpt>
      <trkpt lat="43.76385" lon="7.14951">
        <ele>823.3</ele>
        <time>2012-12-09T09:19:51Z</time>
      </trkpt>
      <trkpt lat="43.76383" lon="7.14964">
        <ele>822.2</ele>
        <time>2012-12-09T09:19:54Z</time>
      </trkpt>
      <trkpt lat="43.76328" lon="7.15085">
        <ele>802.7</ele>
        <time>2012-12-09T09:20:12Z</time>
      </trkpt>
      <trkpt lat="43.76285" lon="7.15142">
        <ele>790.2</ele>
        <time>2012-12-09T09:20:23Z</time>
      </trkpt>
      <trkpt lat="43.76287" lon="7.15161">
        <ele>784.3</ele>
        <time>2012-12-09T09:20:28Z</time>
      </trkpt>
      <trkpt lat="43.76289" lon="7.15168">
        <ele>782</ele>
        <time>2012-12-09T09:20:30Z</time>
      </trkpt>
      <trkpt lat="43.76283" lon="7.152">
        <ele>772.3</ele>
        <time>2012-12-09T09:20:42Z</time>
      </trkpt>
      <trkpt lat="43.76268" lon="7.15236">
        <ele>765.1</ele>
        <time>2012-12-09T09:20:52Z</time>
      </trkpt>
      <trkpt lat="43.76249" lon="7.15271">
        <ele>756.7</ele>
        <time>2012-12-09T09:21:02Z</time>
      </trkpt>
      <trkpt lat="43.76242" lon="7.15277">
        <ele>753.5</ele>
        <time>2012-12-09T09:21:05Z</time>
      </trkpt>
      <trkpt lat="43.76239" lon="7.15281">
        <ele>751.5</ele>
        <time>2012-12-09T09:21:07Z</time>
      </trkpt>
      <trkpt lat="43.76234" lon="7.15295">
        <ele>747.8</ele>
        <time>2012-12-09T09:21:12Z</time>
      </trkpt>
      <trkpt lat="43.76224" lon="7.15307">
        <ele>745</ele>
        <time>2012-12-09T09:21:16Z</time>
      </trkpt>
      <trkpt lat="43.76212" lon="7.15318">
        <ele>740.4</ele>
        <time>2012-12-09T09:21:21Z</time>
      </trkpt>
      <trkpt lat="43.7621" lon="7.15334">
        <ele>740.5</ele>
        <time>2012-12-09T09:21:24Z</time>
      </trkpt>
      <trkpt lat="43.76201" lon="7.15342">
        <ele>739.8</ele>
        <time>2012-12-09T09:21:27Z</time>
      </trkpt>
      <trkpt lat="43.76198" lon="7.15343">
        <ele>740.7</ele>
        <time>2012-12-09T09:21:30Z</time>
      </trkpt>
      <trkpt lat="43.762" lon="7.15342">
        <ele>738.6</ele>
        <time>2012-12-09T09:21:59Z</time>
      </trkpt>
      <trkpt lat="43.76193" lon="7.15337">
        <ele>740.1</ele>
        <time>2012-12-09T09:24:29Z</time>
      </trkpt>
      <trkpt lat="43.76184" lon="7.15336">
        <ele>739.3</ele>
        <time>2012-12-09T09:24:32Z</time>
      </trkpt>
      <trkpt lat="43.7617" lon="7.15324">
        <ele>737.7</ele>
        <time>2012-12-09T09:24:38Z</time>
      </trkpt>
      <trkpt lat="43.76163" lon="7.15325">
        <ele>736.9</ele>
        <time>2012-12-09T09:24:41Z</time>
      </trkpt>
      <trkpt lat="43.76146" lon="7.15332">
        <ele>732</ele>
        <time>2012-12-09T09:24:48Z</time>
      </trkpt>
      <trkpt lat="43.76133" lon="7.15332">
        <ele>726.9</ele>
        <time>2012-12-09T09:24:53Z</time>
      </trkpt>
      <trkpt lat="43.76121" lon="7.15339">
        <ele>722.2</ele>
        <time>2012-12-09T09:24:57Z</time>
      </trkpt>
      <trkpt lat="43.76113" lon="7.15345">
        <ele>720.7</ele>
        <time>2012-12-09T09:25:01Z</time>
      </trkpt>
      <trkpt lat="43.7611" lon="7.15347">
        <ele>720.6</ele>
        <time>2012-12-09T09:25:03Z</time>
      </trkpt>
      <trkpt lat="43.76102" lon="7.15346">
        <ele>718.1</ele>
        <time>2012-12-09T09:25:06Z</time>
      </trkpt>
      <trkpt lat="43.76082" lon="7.15353">
        <ele>714.2</ele>
        <time>2012-12-09T09:25:10Z</time>
      </trkpt>
      <trkpt lat="43.76052" lon="7.15368">
        <ele>708.3</ele>
        <time>2012-12-09T09:25:18Z</time>
      </trkpt>
      <trkpt lat="43.76037" lon="7.15371">
        <ele>705.8</ele>
        <time>2012-12-09T09:25:22Z</time>
      </trkpt>
      <trkpt lat="43.76025" lon="7.15377">
        <ele>701.9</ele>
        <time>2012-12-09T09:25:26Z</time>
      </trkpt>
      <trkpt lat="43.7598" lon="7.15409">
        <ele>692.4</ele>
        <time>2012-12-09T09:25:42Z</time>
      </trkpt>
      <trkpt lat="43.75966" lon="7.15421">
        <ele>691.9</ele>
        <time>2012-12-09T09:25:47Z</time>
      </trkpt>
      <trkpt lat="43.759" lon="7.15497">
        <ele>682.2</ele>
        <time>2012-12-09T09:26:12Z</time>
      </trkpt>
      <trkpt lat="43.75871" lon="7.15567">
        <ele>676.5</ele>
        <time>2012-12-09T09:26:27Z</time>
      </trkpt>
      <trkpt lat="43.75859" lon="7.15619">
        <ele>672.8</ele>
        <time>2012-12-09T09:26:35Z</time>
      </trkpt>
      <trkpt lat="43.75853" lon="7.15758">
        <ele>657.8</ele>
        <time>2012-12-09T09:27:03Z</time>
      </trkpt>
      <trkpt lat="43.75854" lon="7.15769">
        <ele>655.8</ele>
        <time>2012-12-09T09:27:06Z</time>
      </trkpt>
      <trkpt lat="43.75867" lon="7.15808">
        <ele>649.2</ele>
        <time>2012-12-09T09:27:15Z</time>
      </trkpt>
      <trkpt lat="43.7588" lon="7.15829">
        <ele>643.9</ele>
        <time>2012-12-09T09:27:20Z</time>
      </trkpt>
      <trkpt lat="43.75897" lon="7.15843">
        <ele>641.6</ele>
        <time>2012-12-09T09:27:25Z</time>
      </trkpt>
      <trkpt lat="43.75899" lon="7.15844">
        <ele>641.4</ele>
        <time>2012-12-09T09:27:26Z</time>
      </trkpt>
      <trkpt lat="43.7591" lon="7.1585">
        <ele>639.7</ele>
        <time>2012-12-09T09:27:32Z</time>
      </trkpt>
      <trkpt lat="43.75907" lon="7.15848">
        <ele>632.5</ele>
        <time>2012-12-09T09:30:19Z</time>
      </trkpt>
      <trkpt lat="43.75924" lon="7.15865">
        <ele>632.8</ele>
        <time>2012-12-09T09:30:28Z</time>
      </trkpt>
      <trkpt lat="43.75925" lon="7.15871">
        <ele>630.7</ele>
        <time>2012-12-09T09:30:32Z</time>
      </trkpt>
      <trkpt lat="43.75906" lon="7.15868">
        <ele>628.7</ele>
        <time>2012-12-09T09:30:39Z</time>
      </trkpt>
      <trkpt lat="43.75907" lon="7.15876">
        <ele>627</ele>
        <time>2012-12-09T09:30:43Z</time>
      </trkpt>
      <trkpt lat="43.75926" lon="7.15894">
        <ele>621.4</ele>
        <time>2012-12-09T09:30:50Z</time>
      </trkpt>
      <trkpt lat="43.75931" lon="7.15896">
        <ele>621.2</ele>
        <time>2012-12-09T09:30:54Z</time>
      </trkpt>
      <trkpt lat="43.7594" lon="7.15904">
        <ele>621.5</ele>
        <time>2012-12-09T09:31:14Z</time>
      </trkpt>
      <trkpt lat="43.75942" lon="7.15906">
        <ele>621.4</ele>
        <time>2012-12-09T09:31:15Z</time>
      </trkpt>
      <trkpt lat="43.75955" lon="7.15921">
        <ele>620.1</ele>
        <time>2012-12-09T09:31:20Z</time>
      </trkpt>
      <trkpt lat="43.75971" lon="7.15936">
        <ele>616.2</ele>
        <time>2012-12-09T09:31:25Z</time>
      </trkpt>
      <trkpt lat="43.7597" lon="7.15944">
        <ele>614.5</ele>
        <time>2012-12-09T09:31:29Z</time>
      </trkpt>
      <trkpt lat="43.75948" lon="7.15942">
        <ele>610.6</ele>
        <time>2012-12-09T09:31:33Z</time>
      </trkpt>
      <trkpt lat="43.75926" lon="7.15943">
        <ele>604.8</ele>
        <time>2012-12-09T09:31:39Z</time>
      </trkpt>
      <trkpt lat="43.75929" lon="7.15951">
        <ele>602.2</ele>
        <time>2012-12-09T09:31:43Z</time>
      </trkpt>
      <trkpt lat="43.7597" lon="7.15997">
        <ele>589.5</ele>
        <time>2012-12-09T09:31:57Z</time>
      </trkpt>
      <trkpt lat="43.75973" lon="7.15999">
        <ele>588.3</ele>
        <time>2012-12-09T09:31:58Z</time>
      </trkpt>
      <trkpt lat="43.75979" lon="7.16012">
        <ele>584.5</ele>
        <time>2012-12-09T09:32:03Z</time>
      </trkpt>
      <trkpt lat="43.75977" lon="7.16012">
        <ele>584.7</ele>
        <time>2012-12-09T09:32:08Z</time>
      </trkpt>
      <trkpt lat="43.7598" lon="7.16012">
        <ele>584.7</ele>
        <time>2012-12-09T09:32:26Z</time>
      </trkpt>
      <trkpt lat="43.7598" lon="7.16011">
        <ele>584</ele>
        <time>2012-12-09T09:32:29Z</time>
      </trkpt>
      <trkpt lat="43.75993" lon="7.16022">
        <ele>580.7</ele>
        <time>2012-12-09T09:32:39Z</time>
      </trkpt>
      <trkpt lat="43.76002" lon="7.16032">
        <ele>578.4</ele>
        <time>2012-12-09T09:32:44Z</time>
      </trkpt>
      <trkpt lat="43.76002" lon="7.16045">
        <ele>576.3</ele>
        <time>2012-12-09T09:32:50Z</time>
      </trkpt>
      <trkpt lat="43.75984" lon="7.16044">
        <ele>572.7</ele>
        <time>2012-12-09T09:32:57Z</time>
      </trkpt>
      <trkpt lat="43.75965" lon="7.16042">
        <ele>572.1</ele>
        <time>2012-12-09T09:33:03Z</time>
      </trkpt>
      <trkpt lat="43.75962" lon="7.16042">
        <ele>571.6</ele>
        <time>2012-12-09T09:33:04Z</time>
      </trkpt>
      <trkpt lat="43.75953" lon="7.16043">
        <ele>570.5</ele>
        <time>2012-12-09T09:33:06Z</time>
      </trkpt>
      <trkpt lat="43.75939" lon="7.16039">
        <ele>569.3</ele>
        <time>2012-12-09T09:33:10Z</time>
      </trkpt>
      <trkpt lat="43.75938" lon="7.16043">
        <ele>569</ele>
        <time>2012-12-09T09:33:14Z</time>
      </trkpt>
      <trkpt lat="43.75954" lon="7.16056">
        <ele>565.3</ele>
        <time>2012-12-09T09:33:20Z</time>
      </trkpt>
      <trkpt lat="43.75969" lon="7.16073">
        <ele>561.6</ele>
        <time>2012-12-09T09:33:26Z</time>
      </trkpt>
      <trkpt lat="43.75975" lon="7.16078">
        <ele>559.1</ele>
        <time>2012-12-09T09:33:28Z</time>
      </trkpt>
      <trkpt lat="43.75969" lon="7.16081">
        <ele>557.2</ele>
        <time>2012-12-09T09:33:32Z</time>
      </trkpt>
      <trkpt lat="43.75931" lon="7.16085">
        <ele>546</ele>
        <time>2012-12-09T09:33:44Z</time>
      </trkpt>
      <trkpt lat="43.75933" lon="7.16093">
        <ele>545.2</ele>
        <time>2012-12-09T09:33:48Z</time>
      </trkpt>
      <trkpt lat="43.75942" lon="7.16104">
        <ele>543.3</ele>
        <time>2012-12-09T09:33:53Z</time>
      </trkpt>
      <trkpt lat="43.75943" lon="7.16107">
        <ele>541.9</ele>
        <time>2012-12-09T09:33:57Z</time>
      </trkpt>
      <trkpt lat="43.75943" lon="7.16107">
        <ele>541.7</ele>
        <time>2012-12-09T09:33:58Z</time>
      </trkpt>
      <trkpt lat="43.75946" lon="7.16111">
        <ele>539.2</ele>
        <time>2012-12-09T09:34:03Z</time>
      </trkpt>
      <trkpt lat="43.75959" lon="7.16124">
        <ele>535.9</ele>
        <time>2012-12-09T09:34:09Z</time>
      </trkpt>
      <trkpt lat="43.75956" lon="7.16128">
        <ele>534.1</ele>
        <time>2012-12-09T09:34:13Z</time>
      </trkpt>
      <trkpt lat="43.75941" lon="7.16129">
        <ele>530.7</ele>
        <time>2012-12-09T09:34:18Z</time>
      </trkpt>
      <trkpt lat="43.75928" lon="7.16127">
        <ele>528.6</ele>
        <time>2012-12-09T09:34:22Z</time>
      </trkpt>
      <trkpt lat="43.75927" lon="7.16132">
        <ele>525.7</ele>
        <time>2012-12-09T09:34:26Z</time>
      </trkpt>
      <trkpt lat="43.75956" lon="7.16167">
        <ele>523.6</ele>
        <time>2012-12-09T09:35:03Z</time>
      </trkpt>
      <trkpt lat="43.7596" lon="7.16173">
        <ele>522.3</ele>
        <time>2012-12-09T09:35:07Z</time>
      </trkpt>
      <trkpt lat="43.7596" lon="7.16175">
        <ele>523.3</ele>
        <time>2012-12-09T09:35:12Z</time>
      </trkpt>
      <trkpt lat="43.75961" lon="7.16175">
        <ele>523.3</ele>
        <time>2012-12-09T09:35:13Z</time>
      </trkpt>
      <trkpt lat="43.75958" lon="7.16179">
        <ele>523.2</ele>
        <time>2012-12-09T09:35:19Z</time>
      </trkpt>
      <trkpt lat="43.75955" lon="7.16183">
        <ele>520.6</ele>
        <time>2012-12-09T09:35:26Z</time>
      </trkpt>
      <trkpt lat="43.75967" lon="7.16204">
        <ele>517.8</ele>
        <time>2012-12-09T09:35:32Z</time>
      </trkpt>
      <trkpt lat="43.76015" lon="7.16252">
        <ele>512.8</ele>
        <time>2012-12-09T09:35:47Z</time>
      </trkpt>
      <trkpt lat="43.76026" lon="7.16268">
        <ele>511.6</ele>
        <time>2012-12-09T09:35:52Z</time>
      </trkpt>
      <trkpt lat="43.76029" lon="7.16272">
        <ele>510.4</ele>
        <time>2012-12-09T09:35:54Z</time>
      </trkpt>
      <trkpt lat="43.76028" lon="7.16277">
        <ele>510.2</ele>
        <time>2012-12-09T09:35:57Z</time>
      </trkpt>
      <trkpt lat="43.75969" lon="7.1626">
        <ele>503.8</ele>
        <time>2012-12-09T09:36:18Z</time>
      </trkpt>
      <trkpt lat="43.7597" lon="7.16267">
        <ele>502</ele>
        <time>2012-12-09T09:36:22Z</time>
      </trkpt>
      <trkpt lat="43.75977" lon="7.16277">
        <ele>500.2</ele>
        <time>2012-12-09T09:36:26Z</time>
      </trkpt>
      <trkpt lat="43.75974" lon="7.1628">
        <ele>498.6</ele>
        <time>2012-12-09T09:36:30Z</time>
      </trkpt>
      <trkpt lat="43.75971" lon="7.16284">
        <ele>497.9</ele>
        <time>2012-12-09T09:36:33Z</time>
      </trkpt>
      <trkpt lat="43.75977" lon="7.16291">
        <ele>494.9</ele>
        <time>2012-12-09T09:36:37Z</time>
      </trkpt>
      <trkpt lat="43.75966" lon="7.16294">
        <ele>491.6</ele>
        <time>2012-12-09T09:36:43Z</time>
      </trkpt>
      <trkpt lat="43.7595" lon="7.16297">
        <ele>485.3</ele>
        <time>2012-12-09T09:36:49Z</time>
      </trkpt>
      <trkpt lat="43.75943" lon="7.163">
        <ele>483.1</ele>
        <time>2012-12-09T09:36:52Z</time>
      </trkpt>
      <trkpt lat="43.75947" lon="7.16312">
        <ele>481.9</ele>
        <time>2012-12-09T09:36:57Z</time>
      </trkpt>
      <trkpt lat="43.7595" lon="7.16323">
        <ele>480.3</ele>
        <time>2012-12-09T09:37:01Z</time>
      </trkpt>
      <trkpt lat="43.75938" lon="7.16323">
        <ele>479.9</ele>
        <time>2012-12-09T09:37:26Z</time>
      </trkpt>
      <trkpt lat="43.75935" lon="7.16323">
        <ele>478.8</ele>
        <time>2012-12-09T09:37:32Z</time>
      </trkpt>
      <trkpt lat="43.75932" lon="7.16319">
        <ele>479.6</ele>
        <time>2012-12-09T09:37:38Z</time>
      </trkpt>
      <trkpt lat="43.7593" lon="7.16318">
        <ele>486.7</ele>
        <time>2012-12-09T09:38:45Z</time>
      </trkpt>
      <trkpt lat="43.75932" lon="7.16321">
        <ele>486.9</ele>
        <time>2012-12-09T09:38:48Z</time>
      </trkpt>
      <trkpt lat="43.7593" lon="7.16327">
        <ele>485.4</ele>
        <time>2012-12-09T09:38:54Z</time>
      </trkpt>
      <trkpt lat="43.75932" lon="7.1633">
        <ele>483.3</ele>
        <time>2012-12-09T09:39:00Z</time>
      </trkpt>
      <trkpt lat="43.75932" lon="7.1633">
        <ele>483</ele>
        <time>2012-12-09T09:39:01Z</time>
      </trkpt>
      <trkpt lat="43.75938" lon="7.16338">
        <ele>479.7</ele>
        <time>2012-12-09T09:39:06Z</time>
      </trkpt>
      <trkpt lat="43.75933" lon="7.1634">
        <ele>478.2</ele>
        <time>2012-12-09T09:39:09Z</time>
      </trkpt>
      <trkpt lat="43.75928" lon="7.16341">
        <ele>476.8</ele>
        <time>2012-12-09T09:39:11Z</time>
      </trkpt>
      <trkpt lat="43.75926" lon="7.16354">
        <ele>471.9</ele>
        <time>2012-12-09T09:39:19Z</time>
      </trkpt>
      <trkpt lat="43.75917" lon="7.16357">
        <ele>469.3</ele>
        <time>2012-12-09T09:39:23Z</time>
      </trkpt>
      <trkpt lat="43.7591" lon="7.16358">
        <ele>467.2</ele>
        <time>2012-12-09T09:39:26Z</time>
      </trkpt>
      <trkpt lat="43.75911" lon="7.1637">
        <ele>464.5</ele>
        <time>2012-12-09T09:39:30Z</time>
      </trkpt>
      <trkpt lat="43.75912" lon="7.16373">
        <ele>463.7</ele>
        <time>2012-12-09T09:39:31Z</time>
      </trkpt>
      <trkpt lat="43.75916" lon="7.16388">
        <ele>460.1</ele>
        <time>2012-12-09T09:39:36Z</time>
      </trkpt>
      <trkpt lat="43.7591" lon="7.16396">
        <ele>457.5</ele>
        <time>2012-12-09T09:39:41Z</time>
      </trkpt>
      <trkpt lat="43.75906" lon="7.16405">
        <ele>454.6</ele>
        <time>2012-12-09T09:39:45Z</time>
      </trkpt>
      <trkpt lat="43.75896" lon="7.16445">
        <ele>443.2</ele>
        <time>2012-12-09T09:39:57Z</time>
      </trkpt>
      <trkpt lat="43.75887" lon="7.16448">
        <ele>440.7</ele>
        <time>2012-12-09T09:40:01Z</time>
      </trkpt>
      <trkpt lat="43.75886" lon="7.16451">
        <ele>440.3</ele>
        <time>2012-12-09T09:40:05Z</time>
      </trkpt>
      <trkpt lat="43.75888" lon="7.16452">
        <ele>440.1</ele>
        <time>2012-12-09T09:40:12Z</time>
      </trkpt>
      <trkpt lat="43.75889" lon="7.16449">
        <ele>439.9</ele>
        <time>2012-12-09T09:40:38Z</time>
      </trkpt>
      <trkpt lat="43.75888" lon="7.16448">
        <ele>438.7</ele>
        <time>2012-12-09T09:40:56Z</time>
      </trkpt>
      <trkpt lat="43.75882" lon="7.16443">
        <ele>438.1</ele>
        <time>2012-12-09T09:41:02Z</time>
      </trkpt>
      <trkpt lat="43.75881" lon="7.16451">
        <ele>436.6</ele>
        <time>2012-12-09T09:41:05Z</time>
      </trkpt>
      <trkpt lat="43.75884" lon="7.16461">
        <ele>435.8</ele>
        <time>2012-12-09T09:41:08Z</time>
      </trkpt>
      <trkpt lat="43.75871" lon="7.16574">
        <ele>417.3</ele>
        <time>2012-12-09T09:41:28Z</time>
      </trkpt>
      <trkpt lat="43.7587" lon="7.1658">
        <ele>416.3</ele>
        <time>2012-12-09T09:41:29Z</time>
      </trkpt>
      <trkpt lat="43.75863" lon="7.16599">
        <ele>413.4</ele>
        <time>2012-12-09T09:41:32Z</time>
      </trkpt>
      <trkpt lat="43.75855" lon="7.16617">
        <ele>409.2</ele>
        <time>2012-12-09T09:41:36Z</time>
      </trkpt>
      <trkpt lat="43.75855" lon="7.16619">
        <ele>408.6</ele>
        <time>2012-12-09T09:41:37Z</time>
      </trkpt>
      <trkpt lat="43.7586" lon="7.16623">
        <ele>406.3</ele>
        <time>2012-12-09T09:41:41Z</time>
      </trkpt>
      <trkpt lat="43.75893" lon="7.16617">
        <ele>402.6</ele>
        <time>2012-12-09T09:41:54Z</time>
      </trkpt>
      <trkpt lat="43.75916" lon="7.16618">
        <ele>403.4</ele>
        <time>2012-12-09T09:42:03Z</time>
      </trkpt>
      <trkpt lat="43.75935" lon="7.16628">
        <ele>407.7</ele>
        <time>2012-12-09T09:42:10Z</time>
      </trkpt>
      <trkpt lat="43.75953" lon="7.16647">
        <ele>409.5</ele>
        <time>2012-12-09T09:42:17Z</time>
      </trkpt>
      <trkpt lat="43.7597" lon="7.16668">
        <ele>409.7</ele>
        <time>2012-12-09T09:42:24Z</time>
      </trkpt>
      <trkpt lat="43.75984" lon="7.16698">
        <ele>410</ele>
        <time>2012-12-09T09:42:32Z</time>
      </trkpt>
      <trkpt lat="43.75991" lon="7.16721">
        <ele>411.2</ele>
        <time>2012-12-09T09:42:39Z</time>
      </trkpt>
      <trkpt lat="43.76004" lon="7.16738">
        <ele>411.8</ele>
        <time>2012-12-09T09:42:46Z</time>
      </trkpt>
      <trkpt lat="43.76042" lon="7.16767">
        <ele>412.5</ele>
        <time>2012-12-09T09:42:59Z</time>
      </trkpt>
      <trkpt lat="43.76056" lon="7.16789">
        <ele>412.4</ele>
        <time>2012-12-09T09:43:05Z</time>
      </trkpt>
      <trkpt lat="43.76075" lon="7.16812">
        <ele>411.5</ele>
        <time>2012-12-09T09:43:12Z</time>
      </trkpt>
      <trkpt lat="43.76092" lon="7.16819">
        <ele>412</ele>
        <time>2012-12-09T09:43:17Z</time>
      </trkpt>
      <trkpt lat="43.76178" lon="7.1688">
        <ele>418.2</ele>
        <time>2012-12-09T09:43:44Z</time>
      </trkpt>
      <trkpt lat="43.76199" lon="7.16889">
        <ele>417.3</ele>
        <time>2012-12-09T09:43:50Z</time>
      </trkpt>
      <trkpt lat="43.76243" lon="7.16897">
        <ele>417.2</ele>
        <time>2012-12-09T09:44:02Z</time>
      </trkpt>
      <trkpt lat="43.76289" lon="7.16913">
        <ele>418.9</ele>
        <time>2012-12-09T09:44:15Z</time>
      </trkpt>
      <trkpt lat="43.76308" lon="7.16913">
        <ele>416.3</ele>
        <time>2012-12-09T09:44:20Z</time>
      </trkpt>
      <trkpt lat="43.76329" lon="7.16916">
        <ele>415.8</ele>
        <time>2012-12-09T09:44:26Z</time>
      </trkpt>
      <trkpt lat="43.76347" lon="7.1691">
        <ele>415.2</ele>
        <time>2012-12-09T09:44:31Z</time>
      </trkpt>
      <trkpt lat="43.76367" lon="7.16907">
        <ele>412.4</ele>
        <time>2012-12-09T09:44:36Z</time>
      </trkpt>
      <trkpt lat="43.76392" lon="7.1691">
        <ele>408.9</ele>
        <time>2012-12-09T09:44:41Z</time>
      </trkpt>
      <trkpt lat="43.76404" lon="7.1691">
        <ele>407.6</ele>
        <time>2012-12-09T09:44:43Z</time>
      </trkpt>
      <trkpt lat="43.76449" lon="7.16895">
        <ele>401.6</ele>
        <time>2012-12-09T09:44:51Z</time>
      </trkpt>
      <trkpt lat="43.76478" lon="7.1689">
        <ele>403</ele>
        <time>2012-12-09T09:44:56Z</time>
      </trkpt>
      <trkpt lat="43.76516" lon="7.16868">
        <ele>401.7</ele>
        <time>2012-12-09T09:45:03Z</time>
      </trkpt>
      <trkpt lat="43.76545" lon="7.16864">
        <ele>403.6</ele>
        <time>2012-12-09T09:45:08Z</time>
      </trkpt>
      <trkpt lat="43.76577" lon="7.16876">
        <ele>405.6</ele>
        <time>2012-12-09T09:45:13Z</time>
      </trkpt>
      <trkpt lat="43.76614" lon="7.16873">
        <ele>406.1</ele>
        <time>2012-12-09T09:45:18Z</time>
      </trkpt>
      <trkpt lat="43.76664" lon="7.16863">
        <ele>402.8</ele>
        <time>2012-12-09T09:45:25Z</time>
      </trkpt>
      <trkpt lat="43.76742" lon="7.1687">
        <ele>398.9</ele>
        <time>2012-12-09T09:45:38Z</time>
      </trkpt>
      <trkpt lat="43.76785" lon="7.16882">
        <ele>400.6</ele>
        <time>2012-12-09T09:45:46Z</time>
      </trkpt>
      <trkpt lat="43.76817" lon="7.16908">
        <ele>399.9</ele>
        <time>2012-12-09T09:45:53Z</time>
      </trkpt>
      <trkpt lat="43.76848" lon="7.16918">
        <ele>399.7</ele>
        <time>2012-12-09T09:45:59Z</time>
      </trkpt>
      <trkpt lat="43.76853" lon="7.16919">
        <ele>399.2</ele>
        <time>2012-12-09T09:46:00Z</time>
      </trkpt>
      <trkpt lat="43.76879" lon="7.1691">
        <ele>395.9</ele>
        <time>2012-12-09T09:46:05Z</time>
      </trkpt>
      <trkpt lat="43.76902" lon="7.16866">
        <ele>391.1</ele>
        <time>2012-12-09T09:46:13Z</time>
      </trkpt>
      <trkpt lat="43.76925" lon="7.16882">
        <ele>388.9</ele>
        <time>2012-12-09T09:46:17Z</time>
      </trkpt>
      <trkpt lat="43.76945" lon="7.16944">
        <ele>392.5</ele>
        <time>2012-12-09T09:46:25Z</time>
      </trkpt>
      <trkpt lat="43.76962" lon="7.16958">
        <ele>391.1</ele>
        <time>2012-12-09T09:46:28Z</time>
      </trkpt>
      <trkpt lat="43.76975" lon="7.1696">
        <ele>390.6</ele>
        <time>2012-12-09T09:46:30Z</time>
      </trkpt>
      <trkpt lat="43.77001" lon="7.16972">
        <ele>392.6</ele>
        <time>2012-12-09T09:46:35Z</time>
      </trkpt>
      <trkpt lat="43.77012" lon="7.1699">
        <ele>392.9</ele>
        <time>2012-12-09T09:46:39Z</time>
      </trkpt>
      <trkpt lat="43.7703" lon="7.16999">
        <ele>390.1</ele>
        <time>2012-12-09T09:46:43Z</time>
      </trkpt>
      <trkpt lat="43.77047" lon="7.17006">
        <ele>389.3</ele>
        <time>2012-12-09T09:46:47Z</time>
      </trkpt>
      <trkpt lat="43.77095" lon="7.17044">
        <ele>388</ele>
        <time>2012-12-09T09:46:58Z</time>
      </trkpt>
      <trkpt lat="43.77117" lon="7.17055">
        <ele>389.4</ele>
        <time>2012-12-09T09:47:03Z</time>
      </trkpt>
      <trkpt lat="43.77179" lon="7.17058">
        <ele>386.1</ele>
        <time>2012-12-09T09:47:16Z</time>
      </trkpt>
      <trkpt lat="43.77193" lon="7.17061">
        <ele>386.1</ele>
        <time>2012-12-09T09:47:19Z</time>
      </trkpt>
      <trkpt lat="43.77208" lon="7.17055">
        <ele>386.9</ele>
        <time>2012-12-09T09:47:23Z</time>
      </trkpt>
      <trkpt lat="43.77211" lon="7.17045">
        <ele>386.9</ele>
        <time>2012-12-09T09:47:25Z</time>
      </trkpt>
      <trkpt lat="43.77216" lon="7.17022">
        <ele>386.4</ele>
        <time>2012-12-09T09:47:29Z</time>
      </trkpt>
      <trkpt lat="43.7723" lon="7.16999">
        <ele>382.4</ele>
        <time>2012-12-09T09:47:34Z</time>
      </trkpt>
      <trkpt lat="43.77241" lon="7.16999">
        <ele>386.3</ele>
        <time>2012-12-09T09:47:38Z</time>
      </trkpt>
      <trkpt lat="43.77265" lon="7.17077">
        <ele>396.5</ele>
        <time>2012-12-09T09:47:55Z</time>
      </trkpt>
      <trkpt lat="43.77272" lon="7.17136">
        <ele>402.2</ele>
        <time>2012-12-09T09:48:07Z</time>
      </trkpt>
      <trkpt lat="43.77304" lon="7.17202">
        <ele>403.2</ele>
        <time>2012-12-09T09:48:24Z</time>
      </trkpt>
      <trkpt lat="43.77418" lon="7.17329">
        <ele>393.6</ele>
        <time>2012-12-09T09:49:00Z</time>
      </trkpt>
      <trkpt lat="43.77437" lon="7.17358">
        <ele>393.2</ele>
        <time>2012-12-09T09:49:06Z</time>
      </trkpt>
      <trkpt lat="43.77462" lon="7.17391">
        <ele>393.1</ele>
        <time>2012-12-09T09:49:14Z</time>
      </trkpt>
      <trkpt lat="43.77469" lon="7.17396">
        <ele>393.3</ele>
        <time>2012-12-09T09:49:16Z</time>
      </trkpt>
      <trkpt lat="43.77501" lon="7.17403">
        <ele>396.2</ele>
        <time>2012-12-09T09:49:24Z</time>
      </trkpt>
      <trkpt lat="43.7751" lon="7.17407">
        <ele>395.5</ele>
        <time>2012-12-09T09:49:26Z</time>
      </trkpt>
      <trkpt lat="43.77534" lon="7.17431">
        <ele>395.2</ele>
        <time>2012-12-09T09:49:32Z</time>
      </trkpt>
      <trkpt lat="43.7755" lon="7.17458">
        <ele>396.7</ele>
        <time>2012-12-09T09:49:38Z</time>
      </trkpt>
      <trkpt lat="43.77575" lon="7.1748">
        <ele>396.4</ele>
        <time>2012-12-09T09:49:45Z</time>
      </trkpt>
      <trkpt lat="43.77601" lon="7.1749">
        <ele>397.5</ele>
        <time>2012-12-09T09:49:52Z</time>
      </trkpt>
      <trkpt lat="43.77623" lon="7.17504">
        <ele>397.2</ele>
        <time>2012-12-09T09:49:58Z</time>
      </trkpt>
      <trkpt lat="43.77651" lon="7.17547">
        <ele>395.5</ele>
        <time>2012-12-09T09:50:08Z</time>
      </trkpt>
      <trkpt lat="43.77676" lon="7.17561">
        <ele>395.2</ele>
        <time>2012-12-09T09:50:15Z</time>
      </trkpt>
      <trkpt lat="43.77726" lon="7.17567">
        <ele>393.8</ele>
        <time>2012-12-09T09:50:27Z</time>
      </trkpt>
      <trkpt lat="43.77744" lon="7.17565">
        <ele>393.4</ele>
        <time>2012-12-09T09:50:31Z</time>
      </trkpt>
      <trkpt lat="43.77864" lon="7.17579">
        <ele>401.8</ele>
        <time>2012-12-09T09:50:59Z</time>
      </trkpt>
      <trkpt lat="43.77995" lon="7.1761">
        <ele>409</ele>
        <time>2012-12-09T09:51:35Z</time>
      </trkpt>
      <trkpt lat="43.78017" lon="7.17612">
        <ele>407.7</ele>
        <time>2012-12-09T09:51:41Z</time>
      </trkpt>
      <trkpt lat="43.78023" lon="7.1761">
        <ele>407</ele>
        <time>2012-12-09T09:51:43Z</time>
      </trkpt>
      <trkpt lat="43.78025" lon="7.17587">
        <ele>405.5</ele>
        <time>2012-12-09T09:51:48Z</time>
      </trkpt>
      <trkpt lat="43.78022" lon="7.17564">
        <ele>403</ele>
        <time>2012-12-09T09:51:51Z</time>
      </trkpt>
      <trkpt lat="43.7802" lon="7.17509">
        <ele>399.4</ele>
        <time>2012-12-09T09:51:57Z</time>
      </trkpt>
      <trkpt lat="43.78023" lon="7.17478">
        <ele>396.8</ele>
        <time>2012-12-09T09:52:00Z</time>
      </trkpt>
      <trkpt lat="43.7804" lon="7.17433">
        <ele>393</ele>
        <time>2012-12-09T09:52:05Z</time>
      </trkpt>
      <trkpt lat="43.78047" lon="7.17419">
        <ele>391.6</ele>
        <time>2012-12-09T09:52:07Z</time>
      </trkpt>
      <trkpt lat="43.78069" lon="7.174">
        <ele>389.5</ele>
        <time>2012-12-09T09:52:12Z</time>
      </trkpt>
      <trkpt lat="43.78212" lon="7.17295">
        <ele>390.2</ele>
        <time>2012-12-09T09:52:39Z</time>
      </trkpt>
      <trkpt lat="43.78232" lon="7.17292">
        <ele>391.2</ele>
        <time>2012-12-09T09:52:43Z</time>
      </trkpt>
      <trkpt lat="43.78264" lon="7.17319">
        <ele>394.7</ele>
        <time>2012-12-09T09:52:50Z</time>
      </trkpt>
      <trkpt lat="43.78321" lon="7.17382">
        <ele>393.4</ele>
        <time>2012-12-09T09:53:05Z</time>
      </trkpt>
      <trkpt lat="43.78374" lon="7.17427">
        <ele>389.1</ele>
        <time>2012-12-09T09:53:17Z</time>
      </trkpt>
      <trkpt lat="43.78443" lon="7.17475">
        <ele>382.9</ele>
        <time>2012-12-09T09:53:28Z</time>
      </trkpt>
      <trkpt lat="43.78505" lon="7.17503">
        <ele>381.5</ele>
        <time>2012-12-09T09:53:37Z</time>
      </trkpt>
      <trkpt lat="43.78536" lon="7.17513">
        <ele>382</ele>
        <time>2012-12-09T09:53:43Z</time>
      </trkpt>
      <trkpt lat="43.78562" lon="7.17515">
        <ele>381.7</ele>
        <time>2012-12-09T09:53:48Z</time>
      </trkpt>
      <trkpt lat="43.78576" lon="7.17532">
        <ele>382.4</ele>
        <time>2012-12-09T09:53:52Z</time>
      </trkpt>
      <trkpt lat="43.7858" lon="7.17597">
        <ele>385.4</ele>
        <time>2012-12-09T09:54:02Z</time>
      </trkpt>
      <trkpt lat="43.78588" lon="7.17635">
        <ele>384.7</ele>
        <time>2012-12-09T09:54:09Z</time>
      </trkpt>
      <trkpt lat="43.78592" lon="7.17645">
        <ele>384.6</ele>
        <time>2012-12-09T09:54:11Z</time>
      </trkpt>
      <trkpt lat="43.78722" lon="7.17829">
        <ele>375.4</ele>
        <time>2012-12-09T09:54:45Z</time>
      </trkpt>
      <trkpt lat="43.78736" lon="7.1787">
        <ele>373</ele>
        <time>2012-12-09T09:54:50Z</time>
      </trkpt>
      <trkpt lat="43.78741" lon="7.17974">
        <ele>369.3</ele>
        <time>2012-12-09T09:55:01Z</time>
      </trkpt>
      <trkpt lat="43.78747" lon="7.18">
        <ele>369</ele>
        <time>2012-12-09T09:55:04Z</time>
      </trkpt>
      <trkpt lat="43.78821" lon="7.18173">
        <ele>378.9</ele>
        <time>2012-12-09T09:55:33Z</time>
      </trkpt>
      <trkpt lat="43.78823" lon="7.18178">
        <ele>379.4</ele>
        <time>2012-12-09T09:55:34Z</time>
      </trkpt>
      <trkpt lat="43.78857" lon="7.18244">
        <ele>380.4</ele>
        <time>2012-12-09T09:55:47Z</time>
      </trkpt>
      <trkpt lat="43.78861" lon="7.18249">
        <ele>380.2</ele>
        <time>2012-12-09T09:55:48Z</time>
      </trkpt>
      <trkpt lat="43.78875" lon="7.18263">
        <ele>380.7</ele>
        <time>2012-12-09T09:55:52Z</time>
      </trkpt>
      <trkpt lat="43.78885" lon="7.18268">
        <ele>380.6</ele>
        <time>2012-12-09T09:55:55Z</time>
      </trkpt>
      <trkpt lat="43.78907" lon="7.18295">
        <ele>378.9</ele>
        <time>2012-12-09T09:56:01Z</time>
      </trkpt>
      <trkpt lat="43.78933" lon="7.18335">
        <ele>378.7</ele>
        <time>2012-12-09T09:56:09Z</time>
      </trkpt>
      <trkpt lat="43.78951" lon="7.18349">
        <ele>380.2</ele>
        <time>2012-12-09T09:56:14Z</time>
      </trkpt>
      <trkpt lat="43.78977" lon="7.1836">
        <ele>383.3</ele>
        <time>2012-12-09T09:56:22Z</time>
      </trkpt>
      <trkpt lat="43.79058" lon="7.18385">
        <ele>381.8</ele>
        <time>2012-12-09T09:56:38Z</time>
      </trkpt>
      <trkpt lat="43.79099" lon="7.18404">
        <ele>375.7</ele>
        <time>2012-12-09T09:56:45Z</time>
      </trkpt>
      <trkpt lat="43.79134" lon="7.18426">
        <ele>374.3</ele>
        <time>2012-12-09T09:56:52Z</time>
      </trkpt>
      <trkpt lat="43.79158" lon="7.18432">
        <ele>376.2</ele>
        <time>2012-12-09T09:56:57Z</time>
      </trkpt>
      <trkpt lat="43.79228" lon="7.18419">
        <ele>381.2</ele>
        <time>2012-12-09T09:57:16Z</time>
      </trkpt>
      <trkpt lat="43.79251" lon="7.1841">
        <ele>381.8</ele>
        <time>2012-12-09T09:57:24Z</time>
      </trkpt>
      <trkpt lat="43.79272" lon="7.18398">
        <ele>381.6</ele>
        <time>2012-12-09T09:57:32Z</time>
      </trkpt>
      <trkpt lat="43.7929" lon="7.18382">
        <ele>382.9</ele>
        <time>2012-12-09T09:57:40Z</time>
      </trkpt>
      <trkpt lat="43.79383" lon="7.18333">
        <ele>388.9</ele>
        <time>2012-12-09T09:58:24Z</time>
      </trkpt>
      <trkpt lat="43.79482" lon="7.18225">
        <ele>399.4</ele>
        <time>2012-12-09T09:59:26Z</time>
      </trkpt>
      <trkpt lat="43.79496" lon="7.18214">
        <ele>400.4</ele>
        <time>2012-12-09T09:59:33Z</time>
      </trkpt>
      <trkpt lat="43.79527" lon="7.18193">
        <ele>403.6</ele>
        <time>2012-12-09T09:59:49Z</time>
      </trkpt>
      <trkpt lat="43.7954" lon="7.18181">
        <ele>404.8</ele>
        <time>2012-12-09T09:59:56Z</time>
      </trkpt>
      <trkpt lat="43.79567" lon="7.18163">
        <ele>408</ele>
        <time>2012-12-09T10:00:10Z</time>
      </trkpt>
      <trkpt lat="43.7958" lon="7.18152">
        <ele>408.6</ele>
        <time>2012-12-09T10:00:17Z</time>
      </trkpt>
      <trkpt lat="43.79594" lon="7.18142">
        <ele>409.7</ele>
        <time>2012-12-09T10:00:25Z</time>
      </trkpt>
      <trkpt lat="43.79607" lon="7.1814">
        <ele>411.2</ele>
        <time>2012-12-09T10:00:31Z</time>
      </trkpt>
      <trkpt lat="43.7965" lon="7.18146">
        <ele>420.2</ele>
        <time>2012-12-09T10:00:53Z</time>
      </trkpt>
      <trkpt lat="43.79708" lon="7.18167">
        <ele>428.3</ele>
        <time>2012-12-09T10:01:21Z</time>
      </trkpt>
      <trkpt lat="43.79722" lon="7.18173">
        <ele>428.7</ele>
        <time>2012-12-09T10:01:28Z</time>
      </trkpt>
      <trkpt lat="43.79736" lon="7.18173">
        <ele>429.6</ele>
        <time>2012-12-09T10:01:35Z</time>
      </trkpt>
      <trkpt lat="43.7975" lon="7.18172">
        <ele>430.7</ele>
        <time>2012-12-09T10:01:41Z</time>
      </trkpt>
      <trkpt lat="43.7976" lon="7.18164">
        <ele>430.5</ele>
        <time>2012-12-09T10:01:47Z</time>
      </trkpt>
      <trkpt lat="43.79771" lon="7.18148">
        <ele>428.5</ele>
        <time>2012-12-09T10:01:55Z</time>
      </trkpt>
      <trkpt lat="43.79777" lon="7.18128">
        <ele>429.6</ele>
        <time>2012-12-09T10:02:03Z</time>
      </trkpt>
      <trkpt lat="43.79779" lon="7.18084">
        <ele>436.1</ele>
        <time>2012-12-09T10:02:20Z</time>
      </trkpt>
      <trkpt lat="43.79785" lon="7.18072">
        <ele>435.9</ele>
        <time>2012-12-09T10:02:26Z</time>
      </trkpt>
      <trkpt lat="43.79795" lon="7.18073">
        <ele>436.4</ele>
        <time>2012-12-09T10:02:31Z</time>
      </trkpt>
      <trkpt lat="43.79804" lon="7.18076">
        <ele>437.8</ele>
        <time>2012-12-09T10:02:37Z</time>
      </trkpt>
      <trkpt lat="43.79811" lon="7.1808">
        <ele>439.3</ele>
        <time>2012-12-09T10:02:43Z</time>
      </trkpt>
      <trkpt lat="43.79812" lon="7.18078">
        <ele>437.9</ele>
        <time>2012-12-09T10:02:47Z</time>
      </trkpt>
      <trkpt lat="43.79813" lon="7.18079">
        <ele>436.7</ele>
        <time>2012-12-09T10:02:56Z</time>
      </trkpt>
      <trkpt lat="43.79812" lon="7.18075">
        <ele>439.7</ele>
        <time>2012-12-09T10:07:31Z</time>
      </trkpt>
      <trkpt lat="43.79815" lon="7.18076">
        <ele>437.5</ele>
        <time>2012-12-09T10:07:49Z</time>
      </trkpt>
      <trkpt lat="43.79824" lon="7.18074">
        <ele>435</ele>
        <time>2012-12-09T10:07:57Z</time>
      </trkpt>
      <trkpt lat="43.79832" lon="7.18072">
        <ele>434.7</ele>
        <time>2012-12-09T10:08:03Z</time>
      </trkpt>
      <trkpt lat="43.79846" lon="7.18073">
        <ele>434.5</ele>
        <time>2012-12-09T10:08:12Z</time>
      </trkpt>
      <trkpt lat="43.79855" lon="7.1808">
        <ele>434.7</ele>
        <time>2012-12-09T10:08:18Z</time>
      </trkpt>
      <trkpt lat="43.79862" lon="7.1809">
        <ele>437.5</ele>
        <time>2012-12-09T10:08:24Z</time>
      </trkpt>
      <trkpt lat="43.79868" lon="7.18103">
        <ele>438.9</ele>
        <time>2012-12-09T10:08:30Z</time>
      </trkpt>
      <trkpt lat="43.79899" lon="7.18157">
        <ele>447.2</ele>
        <time>2012-12-09T10:08:54Z</time>
      </trkpt>
      <trkpt lat="43.79914" lon="7.18166">
        <ele>447.7</ele>
        <time>2012-12-09T10:09:01Z</time>
      </trkpt>
      <trkpt lat="43.79924" lon="7.18158">
        <ele>447.6</ele>
        <time>2012-12-09T10:09:06Z</time>
      </trkpt>
      <trkpt lat="43.79969" lon="7.18026">
        <ele>451.5</ele>
        <time>2012-12-09T10:09:54Z</time>
      </trkpt>
      <trkpt lat="43.79978" lon="7.18009">
        <ele>452.8</ele>
        <time>2012-12-09T10:10:01Z</time>
      </trkpt>
      <trkpt lat="43.7999" lon="7.17994">
        <ele>455.2</ele>
        <time>2012-12-09T10:10:09Z</time>
      </trkpt>
      <trkpt lat="43.80018" lon="7.17979">
        <ele>457.4</ele>
        <time>2012-12-09T10:10:23Z</time>
      </trkpt>
      <trkpt lat="43.80091" lon="7.17956">
        <ele>464.8</ele>
        <time>2012-12-09T10:10:58Z</time>
      </trkpt>
      <trkpt lat="43.80109" lon="7.17947">
        <ele>467.6</ele>
        <time>2012-12-09T10:11:06Z</time>
      </trkpt>
      <trkpt lat="43.80122" lon="7.17935">
        <ele>470.1</ele>
        <time>2012-12-09T10:11:13Z</time>
      </trkpt>
      <trkpt lat="43.80132" lon="7.17914">
        <ele>471.3</ele>
        <time>2012-12-09T10:11:21Z</time>
      </trkpt>
      <trkpt lat="43.80132" lon="7.17898">
        <ele>472.1</ele>
        <time>2012-12-09T10:11:26Z</time>
      </trkpt>
      <trkpt lat="43.80128" lon="7.17873">
        <ele>471</ele>
        <time>2012-12-09T10:11:34Z</time>
      </trkpt>
      <trkpt lat="43.80126" lon="7.17786">
        <ele>463.7</ele>
        <time>2012-12-09T10:11:57Z</time>
      </trkpt>
      <trkpt lat="43.80132" lon="7.17738">
        <ele>462.7</ele>
        <time>2012-12-09T10:12:08Z</time>
      </trkpt>
      <trkpt lat="43.80142" lon="7.17702">
        <ele>465.2</ele>
        <time>2012-12-09T10:12:16Z</time>
      </trkpt>
      <trkpt lat="43.80153" lon="7.17676">
        <ele>465.5</ele>
        <time>2012-12-09T10:12:22Z</time>
      </trkpt>
      <trkpt lat="43.802" lon="7.17595">
        <ele>463.9</ele>
        <time>2012-12-09T10:12:43Z</time>
      </trkpt>
      <trkpt lat="43.80226" lon="7.17523">
        <ele>461.3</ele>
        <time>2012-12-09T10:12:59Z</time>
      </trkpt>
      <trkpt lat="43.80298" lon="7.17374">
        <ele>456.3</ele>
        <time>2012-12-09T10:13:35Z</time>
      </trkpt>
      <trkpt lat="43.80188" lon="7.17508">
        <ele>467.8359375</ele>
      </trkpt>
      <trkpt lat="43.80163" lon="7.1753">
        <ele>477.1640625</ele>
      </trkpt>
      <trkpt lat="43.80136" lon="7.1756">
        <ele>481.6796875</ele>
      </trkpt>
      <trkpt lat="43.80093" lon="7.176">
        <ele>490.046875</ele>
      </trkpt>
      <trkpt lat="43.80079" lon="7.1764">
        <ele>489.27734375</ele>
      </trkpt>
      <trkpt lat="43.80052" lon="7.1772">
        <ele>495.76953125</ele>
      </trkpt>
      <trkpt lat="43.80023" lon="7.17783">
        <ele>500.95703125</ele>
      </trkpt>
      <trkpt lat="43.79964" lon="7.17815">
        <ele>504.05078125</ele>
      </trkpt>
      <trkpt lat="43.79896" lon="7.17838">
        <ele>507.44140625</ele>
      </trkpt>
      <trkpt lat="43.79829" lon="7.17828">
        <ele>508.39453125</ele>
      </trkpt>
      <trkpt lat="43.79754" lon="7.17783">
        <ele>514.34765625</ele>
      </trkpt>
      <trkpt lat="43.79705" lon="7.17743">
        <ele>522.2578125</ele>
      </trkpt>
      <trkpt lat="43.79682" lon="7.17715">
        <ele>528.45703125</ele>
      </trkpt>
      <trkpt lat="43.79579" lon="7.17793">
        <ele>539.25</ele>
      </trkpt>
      <trkpt lat="43.79597" lon="7.17715">
        <ele>545.828125</ele>
      </trkpt>
      <trkpt lat="43.79623" lon="7.17615">
        <ele>559.87890625</ele>
      </trkpt>
      <trkpt lat="43.79632" lon="7.17533">
        <ele>580.58984375</ele>
      </trkpt>
      <trkpt lat="43.79578" lon="7.1759">
        <ele>579.73828125</ele>
      </trkpt>
      <trkpt lat="43.79509" lon="7.17643">
        <ele>594.8203125</ele>
      </trkpt>
      <trkpt lat="43.79466" lon="7.17658">
        <ele>605.2578125</ele>
      </trkpt>
      <trkpt lat="43.79497" lon="7.1761">
        <ele>607.54296875</ele>
      </trkpt>
      <trkpt lat="43.79511" lon="7.17528">
        <ele>619.46484375</ele>
      </trkpt>
      <trkpt lat="43.79522" lon="7.17433">
        <ele>632.26171875</ele>
      </trkpt>
      <trkpt lat="43.7954" lon="7.17363">
        <ele>642.28125</ele>
      </trkpt>
      <trkpt lat="43.79581" lon="7.17291">
        <ele>657.1328125</ele>
      </trkpt>
      <trkpt lat="43.79534" lon="7.17343">
        <ele>650.5390625</ele>
      </trkpt>
      <trkpt lat="43.79493" lon="7.17403">
        <ele>651.7890625</ele>
      </trkpt>
      <trkpt lat="43.7947" lon="7.17475">
        <ele>648.17578125</ele>
      </trkpt>
      <trkpt lat="43.79436" lon="7.17543">
        <ele>647.73828125</ele>
      </trkpt>
      <trkpt lat="43.79402" lon="7.1756">
        <ele>653.06640625</ele>
      </trkpt>
      <trkpt lat="43.79364" lon="7.17558">
        <ele>658.06640625</ele>
      </trkpt>
      <trkpt lat="43.79357" lon="7.17535">
        <ele>664.6796875</ele>
      </trkpt>
      <trkpt lat="43.79393" lon="7.1749">
        <ele>671.0703125</ele>
      </trkpt>
      <trkpt lat="43.79416" lon="7.17438">
        <ele>676.1484375</ele>
      </trkpt>
      <trkpt lat="43.79398" lon="7.17428">
        <ele>682.4921875</ele>
      </trkpt>
      <trkpt lat="43.79418" lon="7.17343">
        <ele>697.33984375</ele>
      </trkpt>
      <trkpt lat="43.7943" lon="7.17228">
        <ele>725.37109375</ele>
      </trkpt>
      <trkpt lat="43.79445" lon="7.17216">
        <ele>723.3359375</ele>
      </trkpt>
      <trkpt lat="43.79434" lon="7.17093">
        <ele>755.328125</ele>
      </trkpt>
      <trkpt lat="43.79441" lon="7.17048">
        <ele>764.125</ele>
      </trkpt>
      <trkpt lat="43.79421" lon="7.17006">
        <ele>776.9140625</ele>
      </trkpt>
      <trkpt lat="43.79403" lon="7.16901">
        <ele>796.53515625</ele>
      </trkpt>
      <trkpt lat="43.79427" lon="7.16871">
        <ele>805.296875</ele>
      </trkpt>
      <trkpt lat="43.79473" lon="7.16873">
        <ele>808.66015625</ele>
      </trkpt>
      <trkpt lat="43.79464" lon="7.16823">
        <ele>820.03125</ele>
      </trkpt>
      <trkpt lat="43.79416" lon="7.16693">
        <ele>840.6953125</ele>
      </trkpt>
      <trkpt lat="43.79398" lon="7.16576">
        <ele>859.796875</ele>
      </trkpt>
      <trkpt lat="43.79393" lon="7.16476">
        <ele>870.640625</ele>
      </trkpt>
      <trkpt lat="43.79382" lon="7.16428">
        <ele>875.3828125</ele>
      </trkpt>
      <trkpt lat="43.79344" lon="7.16396">
        <ele>875.94921875</ele>
      </trkpt>
      <trkpt lat="43.79355" lon="7.16329">
        <ele>881.125</ele>
      </trkpt>
      <trkpt lat="43.79344" lon="7.16266">
        <ele>881.890625</ele>
      </trkpt>
      <trkpt lat="43.79357" lon="7.16194">
        <ele>881.21875</ele>
      </trkpt>
      <trkpt lat="43.79348" lon="7.16169">
        <ele>879.77734375</ele>
      </trkpt>
      <trkpt lat="43.79294" lon="7.16086">
        <ele>879.17578125</ele>
      </trkpt>
      <trkpt lat="43.7924" lon="7.15999">
        <ele>878.765625</ele>
      </trkpt>
      <trkpt lat="43.792" lon="7.15961">
        <ele>879.734375</ele>
      </trkpt>
      <trkpt lat="43.79182" lon="7.15926">
        <ele>880.37890625</ele>
      </trkpt>
      <trkpt lat="43.79157" lon="7.15906">
        <ele>881.28515625</ele>
      </trkpt>
      <trkpt lat="43.7915" lon="7.15826">
        <ele>882.84765625</ele>
      </trkpt>
      <trkpt lat="43.79155" lon="7.15741">
        <ele>884.0625</ele>
      </trkpt>
      <trkpt lat="43.7915" lon="7.15666">
        <ele>888.08984375</ele>
      </trkpt>
      <trkpt lat="43.79152" lon="7.15656">
        <ele>887.9609375</ele>
      </trkpt>
      <trkpt lat="43.79152" lon="7.15654">
        <ele>887.9609375</ele>
      </trkpt>
      <trkpt lat="43.79136" lon="7.15629">
        <ele>888.4609375</ele>
      </trkpt>
      <trkpt lat="43.79125" lon="7.15606">
        <ele>887.6953125</ele>
      </trkpt>
      <trkpt lat="43.79116" lon="7.15584">
        <ele>886.47265625</ele>
      </trkpt>
      <trkpt lat="43.79103" lon="7.15559">
        <ele>885.625</ele>
      </trkpt>
      <trkpt lat="43.791" lon="7.15554">
        <ele>885.8203125</ele>
      </trkpt>
      <trkpt lat="43.79069" lon="7.15469">
        <ele>883.4140625</ele>
      </trkpt>
      <trkpt lat="43.79049" lon="7.15382">
        <ele>877.7421875</ele>
      </trkpt>
      <trkpt lat="43.79013" lon="7.15289">
        <ele>873.73828125</ele>
      </trkpt>
      <trkpt lat="43.78945" lon="7.15189">
        <ele>871.38671875</ele>
      </trkpt>
      <trkpt lat="43.78897" lon="7.15129">
        <ele>868.13671875</ele>
      </trkpt>
      <trkpt lat="43.78848" lon="7.15044">
        <ele>856.31640625</ele>
      </trkpt>
      <trkpt lat="43.788" lon="7.14992">
        <ele>850.61328125</ele>
      </trkpt>
      <trkpt lat="43.78762" lon="7.14907">
        <ele>839.08203125</ele>
      </trkpt>
      <trkpt lat="43.78695" lon="7.14782">
        <ele>826.53125</ele>
      </trkpt>
      <trkpt lat="43.78661" lon="7.14691">
        <ele>814.81640625</ele>
      </trkpt>
      <trkpt lat="43.78643" lon="7.14679">
        <ele>814.96875</ele>
      </trkpt>
      <trkpt lat="43.78616" lon="7.14656">
        <ele>814.171875</ele>
      </trkpt>
      <trkpt lat="43.78571" lon="7.14649">
        <ele>817.04296875</ele>
      </trkpt>
      <trkpt lat="43.78541" lon="7.14642">
        <ele>818.33984375</ele>
      </trkpt>
      <trkpt lat="43.78491" lon="7.14624">
        <ele>821.0078125</ele>
      </trkpt>
      <trkpt lat="43.78428" lon="7.14559">
        <ele>821.26953125</ele>
      </trkpt>
      <trkpt lat="43.78408" lon="7.14504">
        <ele>814.65625</ele>
      </trkpt>
      <trkpt lat="43.78367" lon="7.14482">
        <ele>818.1015625</ele>
      </trkpt>
      <trkpt lat="43.78323" lon="7.14454">
        <ele>822.33203125</ele>
      </trkpt>
      <trkpt lat="43.78262" lon="7.14417">
        <ele>826.7578125</ele>
      </trkpt>
      <trkpt lat="43.78223" lon="7.14387">
        <ele>830.08984375</ele>
      </trkpt>
      <trkpt lat="43.78189" lon="7.14332">
        <ele>830.2265625</ele>
      </trkpt>
      <trkpt lat="43.78135" lon="7.14297">
        <ele>834.38671875</ele>
      </trkpt>
      <trkpt lat="43.78097" lon="7.14284">
        <ele>837.26953125</ele>
      </trkpt>
      <trkpt lat="43.78054" lon="7.14279">
        <ele>841.19921875</ele>
      </trkpt>
      <trkpt lat="43.78029" lon="7.14294">
        <ele>845.13671875</ele>
      </trkpt>
      <trkpt lat="43.78002" lon="7.14297">
        <ele>847.859375</ele>
      </trkpt>
      <trkpt lat="43.77959" lon="7.14257">
        <ele>845.67578125</ele>
      </trkpt>
      <trkpt lat="43.77896" lon="7.14247">
        <ele>849.60546875</ele>
      </trkpt>
      <trkpt lat="43.77844" lon="7.14227">
        <ele>849.75</ele>
      </trkpt>
      <trkpt lat="43.77795" lon="7.14199">
        <ele>848.1484375</ele>
      </trkpt>
      <trkpt lat="43.77741" lon="7.14179">
        <ele>847.65625</ele>
      </trkpt>
      <trkpt lat="43.77686" lon="7.14147">
        <ele>842.015625</ele>
      </trkpt>
      <trkpt lat="43.77643" lon="7.14107">
        <ele>834.5390625</ele>
      </trkpt>
      <trkpt lat="43.77621" lon="7.14077">
        <ele>830.85546875</ele>
      </trkpt>
      <trkpt lat="43.77576" lon="7.14027">
        <ele>827.47265625</ele>
      </trkpt>
      <trkpt lat="43.7754" lon="7.14027">
        <ele>822.62109375</ele>
      </trkpt>
      <trkpt lat="43.77499" lon="7.13964">
        <ele>810.16015625</ele>
      </trkpt>
      <trkpt lat="43.77486" lon="7.13949">
        <ele>805.39453125</ele>
      </trkpt>
      <trkpt lat="43.77511" lon="7.13892">
        <ele>816.72265625</ele>
      </trkpt>
      <trkpt lat="43.77537" lon="7.13852">
        <ele>824.78515625</ele>
      </trkpt>
      <trkpt lat="43.77578" lon="7.13847">
        <ele>821.5</ele>
        <time>2012-12-09T12:19:34Z</time>
      </trkpt>
      <trkpt lat="43.77574" lon="7.13844">
        <ele>820.8</ele>
        <time>2012-12-09T12:19:38Z</time>
      </trkpt>
      <trkpt lat="43.77577" lon="7.13836">
        <ele>821</ele>
        <time>2012-12-09T12:19:40Z</time>
      </trkpt>
      <trkpt lat="43.7758" lon="7.13817">
        <ele>825.6</ele>
        <time>2012-12-09T12:19:47Z</time>
      </trkpt>
      <trkpt lat="43.77577" lon="7.13807">
        <ele>829.7</ele>
        <time>2012-12-09T12:19:53Z</time>
      </trkpt>
      <trkpt lat="43.77576" lon="7.13806">
        <ele>829.8</ele>
        <time>2012-12-09T12:20:00Z</time>
      </trkpt>
      <trkpt lat="43.77573" lon="7.13804">
        <ele>832.5</ele>
        <time>2012-12-09T12:20:03Z</time>
      </trkpt>
      <trkpt lat="43.77569" lon="7.13796">
        <ele>833.6</ele>
        <time>2012-12-09T12:20:12Z</time>
      </trkpt>
      <trkpt lat="43.77568" lon="7.13788">
        <ele>837.4</ele>
        <time>2012-12-09T12:20:20Z</time>
      </trkpt>
      <trkpt lat="43.77569" lon="7.13774">
        <ele>836.8</ele>
        <time>2012-12-09T12:20:33Z</time>
      </trkpt>
      <trkpt lat="43.77571" lon="7.13769">
        <ele>837.7</ele>
        <time>2012-12-09T12:20:40Z</time>
      </trkpt>
      <trkpt lat="43.77572" lon="7.13762">
        <ele>836.9</ele>
        <time>2012-12-09T12:20:46Z</time>
      </trkpt>
      <trkpt lat="43.77569" lon="7.13755">
        <ele>835.9</ele>
        <time>2012-12-09T12:20:54Z</time>
      </trkpt>
      <trkpt lat="43.77572" lon="7.13753">
        <ele>837.5</ele>
        <time>2012-12-09T12:20:59Z</time>
      </trkpt>
      <trkpt lat="43.77574" lon="7.13753">
        <ele>838.7</ele>
        <time>2012-12-09T12:21:03Z</time>
      </trkpt>
      <trkpt lat="43.77579" lon="7.13751">
        <ele>841.5</ele>
        <time>2012-12-09T12:21:11Z</time>
      </trkpt>
      <trkpt lat="43.77579" lon="7.1375">
        <ele>842.1</ele>
        <time>2012-12-09T12:21:12Z</time>
      </trkpt>
      <trkpt lat="43.77577" lon="7.13739">
        <ele>834</ele>
        <time>2012-12-09T12:21:18Z</time>
      </trkpt>
      <trkpt lat="43.77575" lon="7.13738">
        <ele>835.6</ele>
        <time>2012-12-09T12:21:24Z</time>
      </trkpt>
      <trkpt lat="43.77575" lon="7.13736">
        <ele>836.8</ele>
        <time>2012-12-09T12:21:32Z</time>
      </trkpt>
      <trkpt lat="43.77574" lon="7.13732">
        <ele>838.2</ele>
        <time>2012-12-09T12:21:35Z</time>
      </trkpt>
      <trkpt lat="43.77571" lon="7.13726">
        <ele>838.2</ele>
        <time>2012-12-09T12:21:39Z</time>
      </trkpt>
      <trkpt lat="43.77575" lon="7.13715">
        <ele>842.2</ele>
        <time>2012-12-09T12:21:45Z</time>
      </trkpt>
      <trkpt lat="43.77574" lon="7.13708">
        <ele>844.6</ele>
        <time>2012-12-09T12:21:49Z</time>
      </trkpt>
      <trkpt lat="43.77578" lon="7.13694">
        <ele>846.7</ele>
        <time>2012-12-09T12:21:55Z</time>
      </trkpt>
      <trkpt lat="43.77579" lon="7.13682">
        <ele>850.3</ele>
        <time>2012-12-09T12:22:02Z</time>
      </trkpt>
      <trkpt lat="43.77574" lon="7.13663">
        <ele>848.3</ele>
        <time>2012-12-09T12:22:11Z</time>
      </trkpt>
      <trkpt lat="43.77573" lon="7.13646">
        <ele>849.3</ele>
        <time>2012-12-09T12:22:17Z</time>
      </trkpt>
      <trkpt lat="43.7757" lon="7.13636">
        <ele>847.1</ele>
        <time>2012-12-09T12:22:22Z</time>
      </trkpt>
      <trkpt lat="43.77569" lon="7.13628">
        <ele>847.4</ele>
        <time>2012-12-09T12:22:25Z</time>
      </trkpt>
      <trkpt lat="43.77569" lon="7.13615">
        <ele>852.4</ele>
        <time>2012-12-09T12:22:31Z</time>
      </trkpt>
      <trkpt lat="43.77566" lon="7.13594">
        <ele>849.7</ele>
        <time>2012-12-09T12:22:37Z</time>
      </trkpt>
      <trkpt lat="43.77563" lon="7.13579">
        <ele>844.6</ele>
        <time>2012-12-09T12:22:43Z</time>
      </trkpt>
      <trkpt lat="43.77561" lon="7.13569">
        <ele>845.1</ele>
        <time>2012-12-09T12:22:48Z</time>
      </trkpt>
      <trkpt lat="43.77565" lon="7.13554">
        <ele>847.4</ele>
        <time>2012-12-09T12:22:57Z</time>
      </trkpt>
      <trkpt lat="43.7757" lon="7.13544">
        <ele>844.8</ele>
        <time>2012-12-09T12:23:02Z</time>
      </trkpt>
      <trkpt lat="43.77573" lon="7.1353">
        <ele>842.8</ele>
        <time>2012-12-09T12:23:08Z</time>
      </trkpt>
      <trkpt lat="43.77572" lon="7.13526">
        <ele>843.7</ele>
        <time>2012-12-09T12:23:14Z</time>
      </trkpt>
      <trkpt lat="43.77573" lon="7.13519">
        <ele>842.5</ele>
        <time>2012-12-09T12:23:44Z</time>
      </trkpt>
      <trkpt lat="43.7758" lon="7.13506">
        <ele>841.2</ele>
        <time>2012-12-09T12:23:49Z</time>
      </trkpt>
      <trkpt lat="43.7759" lon="7.13494">
        <ele>841</ele>
        <time>2012-12-09T12:23:53Z</time>
      </trkpt>
      <trkpt lat="43.77596" lon="7.13479">
        <ele>841.8</ele>
        <time>2012-12-09T12:23:57Z</time>
      </trkpt>
      <trkpt lat="43.77604" lon="7.13463">
        <ele>841.9</ele>
        <time>2012-12-09T12:24:01Z</time>
      </trkpt>
      <trkpt lat="43.77607" lon="7.1346">
        <ele>841.5</ele>
        <time>2012-12-09T12:24:04Z</time>
      </trkpt>
      <trkpt lat="43.77608" lon="7.13452">
        <ele>837.6</ele>
        <time>2012-12-09T12:24:13Z</time>
      </trkpt>
      <trkpt lat="43.77591" lon="7.13437">
        <ele>831.7</ele>
        <time>2012-12-09T12:24:20Z</time>
      </trkpt>
      <trkpt lat="43.77581" lon="7.13418">
        <ele>828.6</ele>
        <time>2012-12-09T12:24:26Z</time>
      </trkpt>
      <trkpt lat="43.77571" lon="7.1341">
        <ele>826.6</ele>
        <time>2012-12-09T12:24:29Z</time>
      </trkpt>
      <trkpt lat="43.77567" lon="7.13407">
        <ele>826.2</ele>
        <time>2012-12-09T12:24:30Z</time>
      </trkpt>
      <trkpt lat="43.77544" lon="7.13402">
        <ele>822.8</ele>
        <time>2012-12-09T12:24:35Z</time>
      </trkpt>
      <trkpt lat="43.77529" lon="7.13395">
        <ele>819.6</ele>
        <time>2012-12-09T12:24:40Z</time>
      </trkpt>
      <trkpt lat="43.7752" lon="7.13393">
        <ele>819.4</ele>
        <time>2012-12-09T12:24:43Z</time>
      </trkpt>
      <trkpt lat="43.77492" lon="7.13395">
        <ele>814.5</ele>
        <time>2012-12-09T12:24:50Z</time>
      </trkpt>
      <trkpt lat="43.77481" lon="7.13383">
        <ele>811.5</ele>
        <time>2012-12-09T12:24:53Z</time>
      </trkpt>
      <trkpt lat="43.7745" lon="7.13357">
        <ele>806.7</ele>
        <time>2012-12-09T12:25:00Z</time>
      </trkpt>
      <trkpt lat="43.77436" lon="7.13349">
        <ele>806</ele>
        <time>2012-12-09T12:25:03Z</time>
      </trkpt>
      <trkpt lat="43.77428" lon="7.13347">
        <ele>805.8</ele>
        <time>2012-12-09T12:25:05Z</time>
      </trkpt>
      <trkpt lat="43.77417" lon="7.13336">
        <ele>800.7</ele>
        <time>2012-12-09T12:25:09Z</time>
      </trkpt>
      <trkpt lat="43.77416" lon="7.13324">
        <ele>800.6</ele>
        <time>2012-12-09T12:25:12Z</time>
      </trkpt>
      <trkpt lat="43.77411" lon="7.13322">
        <ele>798.9</ele>
        <time>2012-12-09T12:25:14Z</time>
      </trkpt>
      <trkpt lat="43.77391" lon="7.13326">
        <ele>796.7</ele>
        <time>2012-12-09T12:25:20Z</time>
      </trkpt>
      <trkpt lat="43.77388" lon="7.13319">
        <ele>794.6</ele>
        <time>2012-12-09T12:25:24Z</time>
      </trkpt>
      <trkpt lat="43.77391" lon="7.13303">
        <ele>794.7</ele>
        <time>2012-12-09T12:25:28Z</time>
      </trkpt>
      <trkpt lat="43.77386" lon="7.13301">
        <ele>793.7</ele>
        <time>2012-12-09T12:25:30Z</time>
      </trkpt>
      <trkpt lat="43.77372" lon="7.133">
        <ele>790.4</ele>
        <time>2012-12-09T12:25:35Z</time>
      </trkpt>
      <trkpt lat="43.77359" lon="7.13306">
        <ele>788.2</ele>
        <time>2012-12-09T12:25:40Z</time>
      </trkpt>
      <trkpt lat="43.77353" lon="7.13299">
        <ele>785.5</ele>
        <time>2012-12-09T12:25:44Z</time>
      </trkpt>
      <trkpt lat="43.77345" lon="7.13297">
        <ele>783</ele>
        <time>2012-12-09T12:25:48Z</time>
      </trkpt>
      <trkpt lat="43.77339" lon="7.1329">
        <ele>781.3</ele>
        <time>2012-12-09T12:25:52Z</time>
      </trkpt>
      <trkpt lat="43.77335" lon="7.13291">
        <ele>780.6</ele>
        <time>2012-12-09T12:25:54Z</time>
      </trkpt>
      <trkpt lat="43.77327" lon="7.13295">
        <ele>779.5</ele>
        <time>2012-12-09T12:25:57Z</time>
      </trkpt>
      <trkpt lat="43.77322" lon="7.13286">
        <ele>777.1</ele>
        <time>2012-12-09T12:26:02Z</time>
      </trkpt>
      <trkpt lat="43.77304" lon="7.13269">
        <ele>778.8</ele>
        <time>2012-12-09T12:26:11Z</time>
      </trkpt>
      <trkpt lat="43.77298" lon="7.13259">
        <ele>774.9</ele>
        <time>2012-12-09T12:26:18Z</time>
      </trkpt>
      <trkpt lat="43.77291" lon="7.13249">
        <ele>774.8</ele>
        <time>2012-12-09T12:26:23Z</time>
      </trkpt>
      <trkpt lat="43.77286" lon="7.13239">
        <ele>773.1</ele>
        <time>2012-12-09T12:26:27Z</time>
      </trkpt>
      <trkpt lat="43.77282" lon="7.13235">
        <ele>772.8</ele>
        <time>2012-12-09T12:26:29Z</time>
      </trkpt>
      <trkpt lat="43.77262" lon="7.13225">
        <ele>768.9</ele>
        <time>2012-12-09T12:26:38Z</time>
      </trkpt>
      <trkpt lat="43.77248" lon="7.13217">
        <ele>768.4</ele>
        <time>2012-12-09T12:26:44Z</time>
      </trkpt>
      <trkpt lat="43.77237" lon="7.13212">
        <ele>767.4</ele>
        <time>2012-12-09T12:26:53Z</time>
      </trkpt>
      <trkpt lat="43.77224" lon="7.13213">
        <ele>766.6</ele>
        <time>2012-12-09T12:26:58Z</time>
      </trkpt>
      <trkpt lat="43.77207" lon="7.1321">
        <ele>764.1</ele>
        <time>2012-12-09T12:27:03Z</time>
      </trkpt>
      <trkpt lat="43.77191" lon="7.13202">
        <ele>762.1</ele>
        <time>2012-12-09T12:27:08Z</time>
      </trkpt>
      <trkpt lat="43.77184" lon="7.13198">
        <ele>762</ele>
        <time>2012-12-09T12:27:10Z</time>
      </trkpt>
      <trkpt lat="43.77152" lon="7.13188">
        <ele>757.2</ele>
        <time>2012-12-09T12:27:16Z</time>
      </trkpt>
      <trkpt lat="43.77141" lon="7.13186">
        <ele>755</ele>
        <time>2012-12-09T12:27:18Z</time>
      </trkpt>
      <trkpt lat="43.77117" lon="7.13174">
        <ele>752.5</ele>
        <time>2012-12-09T12:27:23Z</time>
      </trkpt>
      <trkpt lat="43.77092" lon="7.13156">
        <ele>749.5</ele>
        <time>2012-12-09T12:27:31Z</time>
      </trkpt>
      <trkpt lat="43.77086" lon="7.13151">
        <ele>749.3</ele>
        <time>2012-12-09T12:27:33Z</time>
      </trkpt>
      <trkpt lat="43.77004" lon="7.13092">
        <ele>747.2</ele>
        <time>2012-12-09T12:27:51Z</time>
      </trkpt>
      <trkpt lat="43.76984" lon="7.13082">
        <ele>746</ele>
        <time>2012-12-09T12:27:54Z</time>
      </trkpt>
      <trkpt lat="43.76972" lon="7.13074">
        <ele>745</ele>
        <time>2012-12-09T12:27:56Z</time>
      </trkpt>
      <trkpt lat="43.76953" lon="7.13065">
        <ele>742.1</ele>
        <time>2012-12-09T12:28:00Z</time>
      </trkpt>
      <trkpt lat="43.76945" lon="7.13066">
        <ele>739.3</ele>
        <time>2012-12-09T12:28:02Z</time>
      </trkpt>
      <trkpt lat="43.76917" lon="7.13055">
        <ele>734.1</ele>
        <time>2012-12-09T12:28:08Z</time>
      </trkpt>
      <trkpt lat="43.76881" lon="7.13036">
        <ele>726.6</ele>
        <time>2012-12-09T12:28:17Z</time>
      </trkpt>
      <trkpt lat="43.76853" lon="7.13044">
        <ele>729.2</ele>
        <time>2012-12-09T12:28:25Z</time>
      </trkpt>
      <trkpt lat="43.76847" lon="7.13038">
        <ele>729.1</ele>
        <time>2012-12-09T12:28:27Z</time>
      </trkpt>
      <trkpt lat="43.76841" lon="7.13037">
        <ele>729.2</ele>
        <time>2012-12-09T12:28:30Z</time>
      </trkpt>
      <trkpt lat="43.76835" lon="7.13033">
        <ele>726.6</ele>
        <time>2012-12-09T12:28:34Z</time>
      </trkpt>
      <trkpt lat="43.76835" lon="7.13031">
        <ele>725.7</ele>
        <time>2012-12-09T12:28:40Z</time>
      </trkpt>
      <trkpt lat="43.76835" lon="7.13031">
        <ele>727.7</ele>
        <time>2012-12-09T12:28:46Z</time>
      </trkpt>
      <trkpt lat="43.76825" lon="7.13023">
        <ele>727.6</ele>
        <time>2012-12-09T12:28:52Z</time>
      </trkpt>
      <trkpt lat="43.76811" lon="7.13017">
        <ele>725.6</ele>
        <time>2012-12-09T12:28:56Z</time>
      </trkpt>
      <trkpt lat="43.76793" lon="7.13013">
        <ele>725.4</ele>
        <time>2012-12-09T12:29:01Z</time>
      </trkpt>
      <trkpt lat="43.7678" lon="7.13008">
        <ele>722.8</ele>
        <time>2012-12-09T12:29:06Z</time>
      </trkpt>
      <trkpt lat="43.76769" lon="7.13001">
        <ele>719.3</ele>
        <time>2012-12-09T12:29:10Z</time>
      </trkpt>
      <trkpt lat="43.76766" lon="7.12997">
        <ele>718.1</ele>
        <time>2012-12-09T12:29:11Z</time>
      </trkpt>
      <trkpt lat="43.76742" lon="7.12977">
        <ele>716</ele>
        <time>2012-12-09T12:29:20Z</time>
      </trkpt>
      <trkpt lat="43.76742" lon="7.12982">
        <ele>710.1</ele>
        <time>2012-12-09T12:29:36Z</time>
      </trkpt>
      <trkpt lat="43.76739" lon="7.12983">
        <ele>709.8</ele>
        <time>2012-12-09T12:29:40Z</time>
      </trkpt>
      <trkpt lat="43.76731" lon="7.12979">
        <ele>711.8</ele>
        <time>2012-12-09T12:29:48Z</time>
      </trkpt>
      <trkpt lat="43.76728" lon="7.12978">
        <ele>709.6</ele>
        <time>2012-12-09T12:29:54Z</time>
      </trkpt>
      <trkpt lat="43.76725" lon="7.12976">
        <ele>709.4</ele>
        <time>2012-12-09T12:29:57Z</time>
      </trkpt>
      <trkpt lat="43.76718" lon="7.12964">
        <ele>706.6</ele>
        <time>2012-12-09T12:30:03Z</time>
      </trkpt>
      <trkpt lat="43.767" lon="7.12951">
        <ele>705.9</ele>
        <time>2012-12-09T12:30:10Z</time>
      </trkpt>
      <trkpt lat="43.76688" lon="7.1294">
        <ele>704.6</ele>
        <time>2012-12-09T12:30:15Z</time>
      </trkpt>
      <trkpt lat="43.76679" lon="7.1292">
        <ele>704.7</ele>
        <time>2012-12-09T12:30:22Z</time>
      </trkpt>
      <trkpt lat="43.76613" lon="7.12866">
        <ele>706.9</ele>
        <time>2012-12-09T12:30:45Z</time>
      </trkpt>
      <trkpt lat="43.76567" lon="7.12848">
        <ele>702.5</ele>
        <time>2012-12-09T12:30:56Z</time>
      </trkpt>
      <trkpt lat="43.76537" lon="7.1284">
        <ele>701.9</ele>
        <time>2012-12-09T12:31:06Z</time>
      </trkpt>
      <trkpt lat="43.76498" lon="7.12811">
        <ele>699</ele>
        <time>2012-12-09T12:31:25Z</time>
      </trkpt>
      <trkpt lat="43.76486" lon="7.12805">
        <ele>696.8</ele>
        <time>2012-12-09T12:31:29Z</time>
      </trkpt>
      <trkpt lat="43.76478" lon="7.12797">
        <ele>693.8</ele>
        <time>2012-12-09T12:31:34Z</time>
      </trkpt>
      <trkpt lat="43.76475" lon="7.12795">
        <ele>692.6</ele>
        <time>2012-12-09T12:31:35Z</time>
      </trkpt>
      <trkpt lat="43.76464" lon="7.12779">
        <ele>687.7</ele>
        <time>2012-12-09T12:31:42Z</time>
      </trkpt>
      <trkpt lat="43.76455" lon="7.12772">
        <ele>685.9</ele>
        <time>2012-12-09T12:31:46Z</time>
      </trkpt>
      <trkpt lat="43.76448" lon="7.12764">
        <ele>683.1</ele>
        <time>2012-12-09T12:31:49Z</time>
      </trkpt>
      <trkpt lat="43.76431" lon="7.12755">
        <ele>680.4</ele>
        <time>2012-12-09T12:31:53Z</time>
      </trkpt>
      <trkpt lat="43.76419" lon="7.12748">
        <ele>678.5</ele>
        <time>2012-12-09T12:31:56Z</time>
      </trkpt>
      <trkpt lat="43.76398" lon="7.1273">
        <ele>676.5</ele>
        <time>2012-12-09T12:32:01Z</time>
      </trkpt>
      <trkpt lat="43.76388" lon="7.12717">
        <ele>675.1</ele>
        <time>2012-12-09T12:32:04Z</time>
      </trkpt>
      <trkpt lat="43.76372" lon="7.12705">
        <ele>671.1</ele>
        <time>2012-12-09T12:32:09Z</time>
      </trkpt>
      <trkpt lat="43.76371" lon="7.12705">
        <ele>666.7</ele>
        <time>2012-12-09T12:32:16Z</time>
      </trkpt>
      <trkpt lat="43.76374" lon="7.12699">
        <ele>665.3</ele>
        <time>2012-12-09T12:32:45Z</time>
      </trkpt>
      <trkpt lat="43.76371" lon="7.127">
        <ele>667.5</ele>
        <time>2012-12-09T12:32:51Z</time>
      </trkpt>
      <trkpt lat="43.76367" lon="7.127">
        <ele>667.8</ele>
        <time>2012-12-09T12:32:55Z</time>
      </trkpt>
      <trkpt lat="43.76365" lon="7.12702">
        <ele>667.9</ele>
        <time>2012-12-09T12:33:00Z</time>
      </trkpt>
      <trkpt lat="43.76366" lon="7.12702">
        <ele>654.9</ele>
        <time>2012-12-09T12:34:08Z</time>
      </trkpt>
      <trkpt lat="43.7636" lon="7.12697">
        <ele>655.3</ele>
        <time>2012-12-09T12:34:12Z</time>
      </trkpt>
      <trkpt lat="43.76344" lon="7.12687">
        <ele>654.3</ele>
        <time>2012-12-09T12:34:17Z</time>
      </trkpt>
      <trkpt lat="43.76333" lon="7.12683">
        <ele>653.2</ele>
        <time>2012-12-09T12:34:21Z</time>
      </trkpt>
      <trkpt lat="43.76305" lon="7.12676">
        <ele>648.9</ele>
        <time>2012-12-09T12:34:31Z</time>
      </trkpt>
      <trkpt lat="43.76286" lon="7.12668">
        <ele>646.6</ele>
        <time>2012-12-09T12:34:38Z</time>
      </trkpt>
      <trkpt lat="43.76272" lon="7.12666">
        <ele>643.8</ele>
        <time>2012-12-09T12:34:44Z</time>
      </trkpt>
      <trkpt lat="43.76267" lon="7.12668">
        <ele>640.8</ele>
        <time>2012-12-09T12:34:48Z</time>
      </trkpt>
      <trkpt lat="43.76266" lon="7.12666">
        <ele>640.3</ele>
        <time>2012-12-09T12:34:56Z</time>
      </trkpt>
      <trkpt lat="43.76256" lon="7.12665">
        <ele>638.3</ele>
        <time>2012-12-09T12:35:05Z</time>
      </trkpt>
      <trkpt lat="43.76239" lon="7.12657">
        <ele>639.5</ele>
        <time>2012-12-09T12:35:10Z</time>
      </trkpt>
      <trkpt lat="43.76232" lon="7.12658">
        <ele>635.5</ele>
        <time>2012-12-09T12:35:13Z</time>
      </trkpt>
      <trkpt lat="43.76217" lon="7.1265">
        <ele>630.5</ele>
        <time>2012-12-09T12:35:18Z</time>
      </trkpt>
      <trkpt lat="43.76208" lon="7.12649">
        <ele>629.8</ele>
        <time>2012-12-09T12:35:22Z</time>
      </trkpt>
      <trkpt lat="43.76203" lon="7.12652">
        <ele>628.5</ele>
        <time>2012-12-09T12:35:25Z</time>
      </trkpt>
      <trkpt lat="43.76193" lon="7.12649">
        <ele>626</ele>
        <time>2012-12-09T12:35:31Z</time>
      </trkpt>
      <trkpt lat="43.76189" lon="7.12646">
        <ele>624.8</ele>
        <time>2012-12-09T12:35:33Z</time>
      </trkpt>
      <trkpt lat="43.76183" lon="7.12644">
        <ele>623.4</ele>
        <time>2012-12-09T12:35:43Z</time>
      </trkpt>
      <trkpt lat="43.76182" lon="7.12641">
        <ele>623.1</ele>
        <time>2012-12-09T12:35:49Z</time>
      </trkpt>
      <trkpt lat="43.76182" lon="7.12642">
        <ele>622.3</ele>
        <time>2012-12-09T12:35:54Z</time>
      </trkpt>
      <trkpt lat="43.76169" lon="7.12642">
        <ele>618.4</ele>
        <time>2012-12-09T12:36:01Z</time>
      </trkpt>
      <trkpt lat="43.76163" lon="7.12638">
        <ele>616.4</ele>
        <time>2012-12-09T12:36:04Z</time>
      </trkpt>
      <trkpt lat="43.7616" lon="7.12634">
        <ele>615.5</ele>
        <time>2012-12-09T12:36:09Z</time>
      </trkpt>
      <trkpt lat="43.76161" lon="7.12628">
        <ele>613.9</ele>
        <time>2012-12-09T12:36:15Z</time>
      </trkpt>
      <trkpt lat="43.76162" lon="7.12627">
        <ele>613.5</ele>
        <time>2012-12-09T12:36:16Z</time>
      </trkpt>
      <trkpt lat="43.76161" lon="7.12622">
        <ele>612.2</ele>
        <time>2012-12-09T12:36:21Z</time>
      </trkpt>
      <trkpt lat="43.76155" lon="7.12624">
        <ele>611.2</ele>
        <time>2012-12-09T12:36:27Z</time>
      </trkpt>
      <trkpt lat="43.76155" lon="7.12625">
        <ele>605.9</ele>
        <time>2012-12-09T12:36:33Z</time>
      </trkpt>
      <trkpt lat="43.76145" lon="7.12621">
        <ele>605.3</ele>
        <time>2012-12-09T12:36:38Z</time>
      </trkpt>
      <trkpt lat="43.76134" lon="7.12619">
        <ele>603</ele>
        <time>2012-12-09T12:36:42Z</time>
      </trkpt>
      <trkpt lat="43.76123" lon="7.12627">
        <ele>599.4</ele>
        <time>2012-12-09T12:36:48Z</time>
      </trkpt>
      <trkpt lat="43.76115" lon="7.12629">
        <ele>594.5</ele>
        <time>2012-12-09T12:37:00Z</time>
      </trkpt>
      <trkpt lat="43.76114" lon="7.1263">
        <ele>593.7</ele>
        <time>2012-12-09T12:37:05Z</time>
      </trkpt>
      <trkpt lat="43.76114" lon="7.1263">
        <ele>592.8</ele>
        <time>2012-12-09T12:37:09Z</time>
      </trkpt>
      <trkpt lat="43.76114" lon="7.12639">
        <ele>592.4</ele>
        <time>2012-12-09T12:37:14Z</time>
      </trkpt>
      <trkpt lat="43.76118" lon="7.12653">
        <ele>591.9</ele>
        <time>2012-12-09T12:37:19Z</time>
      </trkpt>
      <trkpt lat="43.76119" lon="7.12657">
        <ele>591.5</ele>
        <time>2012-12-09T12:37:20Z</time>
      </trkpt>
      <trkpt lat="43.76115" lon="7.12683">
        <ele>589.9</ele>
        <time>2012-12-09T12:37:29Z</time>
      </trkpt>
      <trkpt lat="43.76109" lon="7.12698">
        <ele>589.3</ele>
        <time>2012-12-09T12:37:33Z</time>
      </trkpt>
      <trkpt lat="43.76109" lon="7.12712">
        <ele>590.3</ele>
        <time>2012-12-09T12:37:36Z</time>
      </trkpt>
      <trkpt lat="43.76099" lon="7.12722">
        <ele>590.2</ele>
        <time>2012-12-09T12:37:40Z</time>
      </trkpt>
      <trkpt lat="43.7609" lon="7.12727">
        <ele>590.8</ele>
        <time>2012-12-09T12:37:42Z</time>
      </trkpt>
      <trkpt lat="43.76075" lon="7.12741">
        <ele>580.9</ele>
        <time>2012-12-09T12:37:47Z</time>
      </trkpt>
      <trkpt lat="43.76065" lon="7.12743">
        <ele>577.9</ele>
        <time>2012-12-09T12:37:51Z</time>
      </trkpt>
      <trkpt lat="43.76056" lon="7.12749">
        <ele>572.8</ele>
        <time>2012-12-09T12:37:54Z</time>
      </trkpt>
      <trkpt lat="43.76045" lon="7.12753">
        <ele>569</ele>
        <time>2012-12-09T12:37:59Z</time>
      </trkpt>
      <trkpt lat="43.76046" lon="7.12745">
        <ele>570.3</ele>
        <time>2012-12-09T12:38:03Z</time>
      </trkpt>
      <trkpt lat="43.76047" lon="7.12742">
        <ele>570.4</ele>
        <time>2012-12-09T12:38:04Z</time>
      </trkpt>
      <trkpt lat="43.7605" lon="7.12729">
        <ele>569.8</ele>
        <time>2012-12-09T12:38:09Z</time>
      </trkpt>
      <trkpt lat="43.76039" lon="7.12728">
        <ele>566.9</ele>
        <time>2012-12-09T12:38:15Z</time>
      </trkpt>
      <trkpt lat="43.76047" lon="7.12706">
        <ele>563.2</ele>
        <time>2012-12-09T12:38:21Z</time>
      </trkpt>
      <trkpt lat="43.76046" lon="7.12709">
        <ele>559.9</ele>
        <time>2012-12-09T12:38:35Z</time>
      </trkpt>
      <trkpt lat="43.76045" lon="7.12707">
        <ele>560.8</ele>
        <time>2012-12-09T12:38:41Z</time>
      </trkpt>
      <trkpt lat="43.76045" lon="7.12709">
        <ele>563.5</ele>
        <time>2012-12-09T12:39:02Z</time>
      </trkpt>
      <trkpt lat="43.76043" lon="7.12707">
        <ele>564.9</ele>
        <time>2012-12-09T12:39:08Z</time>
      </trkpt>
      <trkpt lat="43.76043" lon="7.12708">
        <ele>561.9</ele>
        <time>2012-12-09T12:39:32Z</time>
      </trkpt>
      <trkpt lat="43.76038" lon="7.12709">
        <ele>563.6</ele>
        <time>2012-12-09T12:39:37Z</time>
      </trkpt>
      <trkpt lat="43.76031" lon="7.12714">
        <ele>563.7</ele>
        <time>2012-12-09T12:39:41Z</time>
      </trkpt>
      <trkpt lat="43.76027" lon="7.12711">
        <ele>562.3</ele>
        <time>2012-12-09T12:39:46Z</time>
      </trkpt>
      <trkpt lat="43.76023" lon="7.12702">
        <ele>559.4</ele>
        <time>2012-12-09T12:39:51Z</time>
      </trkpt>
      <trkpt lat="43.76019" lon="7.12703">
        <ele>559.4</ele>
        <time>2012-12-09T12:39:52Z</time>
      </trkpt>
      <trkpt lat="43.76006" lon="7.12712">
        <ele>558.8</ele>
        <time>2012-12-09T12:39:56Z</time>
      </trkpt>
      <trkpt lat="43.76002" lon="7.12709">
        <ele>557.1</ele>
        <time>2012-12-09T12:40:00Z</time>
      </trkpt>
      <trkpt lat="43.76007" lon="7.127">
        <ele>553.6</ele>
        <time>2012-12-09T12:40:03Z</time>
      </trkpt>
      <trkpt lat="43.76001" lon="7.12702">
        <ele>553</ele>
        <time>2012-12-09T12:40:06Z</time>
      </trkpt>
      <trkpt lat="43.75996" lon="7.12706">
        <ele>552.4</ele>
        <time>2012-12-09T12:40:08Z</time>
      </trkpt>
      <trkpt lat="43.75994" lon="7.12707">
        <ele>551.4</ele>
        <time>2012-12-09T12:40:11Z</time>
      </trkpt>
      <trkpt lat="43.75989" lon="7.12701">
        <ele>551</ele>
        <time>2012-12-09T12:40:15Z</time>
      </trkpt>
      <trkpt lat="43.75983" lon="7.12704">
        <ele>550.4</ele>
        <time>2012-12-09T12:40:18Z</time>
      </trkpt>
      <trkpt lat="43.75975" lon="7.12702">
        <ele>550</ele>
        <time>2012-12-09T12:40:22Z</time>
      </trkpt>
      <trkpt lat="43.75968" lon="7.12698">
        <ele>550</ele>
        <time>2012-12-09T12:40:26Z</time>
      </trkpt>
      <trkpt lat="43.75975" lon="7.12682">
        <ele>545.4</ele>
        <time>2012-12-09T12:40:31Z</time>
      </trkpt>
      <trkpt lat="43.75971" lon="7.12673">
        <ele>539.5</ele>
        <time>2012-12-09T12:40:35Z</time>
      </trkpt>
      <trkpt lat="43.75965" lon="7.12674">
        <ele>538.2</ele>
        <time>2012-12-09T12:40:37Z</time>
      </trkpt>
      <trkpt lat="43.75956" lon="7.12675">
        <ele>539.9</ele>
        <time>2012-12-09T12:40:41Z</time>
      </trkpt>
      <trkpt lat="43.75964" lon="7.12664">
        <ele>534.1</ele>
        <time>2012-12-09T12:40:46Z</time>
      </trkpt>
      <trkpt lat="43.75961" lon="7.12665">
        <ele>530.3</ele>
        <time>2012-12-09T12:40:49Z</time>
      </trkpt>
      <trkpt lat="43.75945" lon="7.12661">
        <ele>528.3</ele>
        <time>2012-12-09T12:40:57Z</time>
      </trkpt>
      <trkpt lat="43.75946" lon="7.12651">
        <ele>526</ele>
        <time>2012-12-09T12:41:01Z</time>
      </trkpt>
      <trkpt lat="43.75941" lon="7.12656">
        <ele>524.3</ele>
        <time>2012-12-09T12:41:04Z</time>
      </trkpt>
      <trkpt lat="43.75936" lon="7.12657">
        <ele>524.4</ele>
        <time>2012-12-09T12:41:08Z</time>
      </trkpt>
      <trkpt lat="43.75937" lon="7.12652">
        <ele>520.4</ele>
        <time>2012-12-09T12:41:16Z</time>
      </trkpt>
      <trkpt lat="43.75936" lon="7.1265">
        <ele>518.7</ele>
        <time>2012-12-09T12:41:19Z</time>
      </trkpt>
      <trkpt lat="43.75929" lon="7.12645">
        <ele>516</ele>
        <time>2012-12-09T12:41:24Z</time>
      </trkpt>
      <trkpt lat="43.75932" lon="7.12635">
        <ele>515</ele>
        <time>2012-12-09T12:41:27Z</time>
      </trkpt>
      <trkpt lat="43.75929" lon="7.12632">
        <ele>515.3</ele>
        <time>2012-12-09T12:41:35Z</time>
      </trkpt>
      <trkpt lat="43.75932" lon="7.12637">
        <ele>510.9</ele>
        <time>2012-12-09T12:42:23Z</time>
      </trkpt>
      <trkpt lat="43.75929" lon="7.12638">
        <ele>510.7</ele>
        <time>2012-12-09T12:42:25Z</time>
      </trkpt>
      <trkpt lat="43.75924" lon="7.12627">
        <ele>508.5</ele>
        <time>2012-12-09T12:42:30Z</time>
      </trkpt>
      <trkpt lat="43.75916" lon="7.12623">
        <ele>506.7</ele>
        <time>2012-12-09T12:42:33Z</time>
      </trkpt>
      <trkpt lat="43.75913" lon="7.12624">
        <ele>505.7</ele>
        <time>2012-12-09T12:42:36Z</time>
      </trkpt>
      <trkpt lat="43.75912" lon="7.12624">
        <ele>505.4</ele>
        <time>2012-12-09T12:42:37Z</time>
      </trkpt>
      <trkpt lat="43.75904" lon="7.12622">
        <ele>504.8</ele>
        <time>2012-12-09T12:42:42Z</time>
      </trkpt>
      <trkpt lat="43.75864" lon="7.1262">
        <ele>495.6</ele>
        <time>2012-12-09T12:42:58Z</time>
      </trkpt>
      <trkpt lat="43.75848" lon="7.12622">
        <ele>492.4</ele>
        <time>2012-12-09T12:43:04Z</time>
      </trkpt>
      <trkpt lat="43.75816" lon="7.12643">
        <ele>486.6</ele>
        <time>2012-12-09T12:43:15Z</time>
      </trkpt>
      <trkpt lat="43.75784" lon="7.12633">
        <ele>489.1</ele>
        <time>2012-12-09T12:43:24Z</time>
      </trkpt>
      <trkpt lat="43.75759" lon="7.12633">
        <ele>465.3</ele>
        <time>2012-12-09T12:43:33Z</time>
      </trkpt>
      <trkpt lat="43.75761" lon="7.12626">
        <ele>460.7</ele>
        <time>2012-12-09T12:43:37Z</time>
      </trkpt>
      <trkpt lat="43.7576" lon="7.1262">
        <ele>458.8</ele>
        <time>2012-12-09T12:43:40Z</time>
      </trkpt>
      <trkpt lat="43.75747" lon="7.12619">
        <ele>453.6</ele>
        <time>2012-12-09T12:43:45Z</time>
      </trkpt>
      <trkpt lat="43.75754" lon="7.12615">
        <ele>451</ele>
        <time>2012-12-09T12:43:50Z</time>
      </trkpt>
      <trkpt lat="43.75757" lon="7.12617">
        <ele>443.4</ele>
        <time>2012-12-09T12:44:01Z</time>
      </trkpt>
      <trkpt lat="43.75772" lon="7.12597">
        <ele>446.1</ele>
        <time>2012-12-09T12:44:09Z</time>
      </trkpt>
      <trkpt lat="43.75778" lon="7.12584">
        <ele>445.7</ele>
        <time>2012-12-09T12:44:14Z</time>
      </trkpt>
      <trkpt lat="43.75778" lon="7.12578">
        <ele>445.8</ele>
        <time>2012-12-09T12:44:17Z</time>
      </trkpt>
      <trkpt lat="43.75774" lon="7.12575">
        <ele>446.7</ele>
        <time>2012-12-09T12:44:21Z</time>
      </trkpt>
      <trkpt lat="43.75772" lon="7.1257">
        <ele>445.8</ele>
        <time>2012-12-09T12:44:24Z</time>
      </trkpt>
      <trkpt lat="43.75764" lon="7.12569">
        <ele>445.7</ele>
        <time>2012-12-09T12:44:34Z</time>
      </trkpt>
      <trkpt lat="43.75761" lon="7.12565">
        <ele>441.7</ele>
        <time>2012-12-09T12:44:44Z</time>
      </trkpt>
      <trkpt lat="43.7576" lon="7.12568">
        <ele>441.3</ele>
        <time>2012-12-09T12:44:45Z</time>
      </trkpt>
      <trkpt lat="43.7575" lon="7.1258">
        <ele>440.5</ele>
        <time>2012-12-09T12:44:49Z</time>
      </trkpt>
      <trkpt lat="43.75739" lon="7.12588">
        <ele>436.5</ele>
        <time>2012-12-09T12:44:54Z</time>
      </trkpt>
      <trkpt lat="43.75738" lon="7.12579">
        <ele>432.1</ele>
        <time>2012-12-09T12:44:58Z</time>
      </trkpt>
      <trkpt lat="43.75737" lon="7.1258">
        <ele>432.3</ele>
        <time>2012-12-09T12:44:59Z</time>
      </trkpt>
      <trkpt lat="43.75734" lon="7.12579">
        <ele>429.4</ele>
        <time>2012-12-09T12:45:01Z</time>
      </trkpt>
      <trkpt lat="43.75723" lon="7.12575">
        <ele>426</ele>
        <time>2012-12-09T12:45:04Z</time>
      </trkpt>
      <trkpt lat="43.75678" lon="7.12574">
        <ele>417.9</ele>
        <time>2012-12-09T12:45:13Z</time>
      </trkpt>
      <trkpt lat="43.75665" lon="7.12583">
        <ele>420</ele>
        <time>2012-12-09T12:45:22Z</time>
      </trkpt>
      <trkpt lat="43.75664" lon="7.12584">
        <ele>420.1</ele>
        <time>2012-12-09T12:45:24Z</time>
      </trkpt>
      <trkpt lat="43.75649" lon="7.12589">
        <ele>415.6</ele>
        <time>2012-12-09T12:45:34Z</time>
      </trkpt>
      <trkpt lat="43.75641" lon="7.12594">
        <ele>413.8</ele>
        <time>2012-12-09T12:45:38Z</time>
      </trkpt>
      <trkpt lat="43.75615" lon="7.12594">
        <ele>406.5</ele>
        <time>2012-12-09T12:45:46Z</time>
      </trkpt>
      <trkpt lat="43.75591" lon="7.1258">
        <ele>401.9</ele>
        <time>2012-12-09T12:45:53Z</time>
      </trkpt>
      <trkpt lat="43.75573" lon="7.12588">
        <ele>398.2</ele>
        <time>2012-12-09T12:45:57Z</time>
      </trkpt>
      <trkpt lat="43.75563" lon="7.12606">
        <ele>397.3</ele>
        <time>2012-12-09T12:46:00Z</time>
      </trkpt>
      <trkpt lat="43.75554" lon="7.12615">
        <ele>397.6</ele>
        <time>2012-12-09T12:46:03Z</time>
      </trkpt>
      <trkpt lat="43.75549" lon="7.12622">
        <ele>398.5</ele>
        <time>2012-12-09T12:46:06Z</time>
      </trkpt>
      <trkpt lat="43.75546" lon="7.12628">
        <ele>400.5</ele>
        <time>2012-12-09T12:46:11Z</time>
      </trkpt>
      <trkpt lat="43.75543" lon="7.12634">
        <ele>399.6</ele>
        <time>2012-12-09T12:46:24Z</time>
      </trkpt>
      <trkpt lat="43.75538" lon="7.12642">
        <ele>402.1</ele>
        <time>2012-12-09T12:46:42Z</time>
      </trkpt>
      <trkpt lat="43.75535" lon="7.12645">
        <ele>403.8</ele>
        <time>2012-12-09T12:46:44Z</time>
      </trkpt>
      <trkpt lat="43.75525" lon="7.12654">
        <ele>403.1</ele>
        <time>2012-12-09T12:46:51Z</time>
      </trkpt>
      <trkpt lat="43.75516" lon="7.12664">
        <ele>401.6</ele>
        <time>2012-12-09T12:46:55Z</time>
      </trkpt>
      <trkpt lat="43.755" lon="7.12708">
        <ele>405.6</ele>
        <time>2012-12-09T12:47:10Z</time>
      </trkpt>
      <trkpt lat="43.75497" lon="7.12726">
        <ele>406.1</ele>
        <time>2012-12-09T12:47:17Z</time>
      </trkpt>
      <trkpt lat="43.75493" lon="7.12732">
        <ele>406.9</ele>
        <time>2012-12-09T12:47:22Z</time>
      </trkpt>
      <trkpt lat="43.75492" lon="7.12738">
        <ele>407.4</ele>
        <time>2012-12-09T12:47:25Z</time>
      </trkpt>
      <trkpt lat="43.75489" lon="7.12744">
        <ele>408.3</ele>
        <time>2012-12-09T12:47:32Z</time>
      </trkpt>
      <trkpt lat="43.75478" lon="7.12737">
        <ele>418.9</ele>
        <time>2012-12-09T12:48:09Z</time>
      </trkpt>
      <trkpt lat="43.75479" lon="7.12757">
        <ele>416.4</ele>
        <time>2012-12-09T12:48:15Z</time>
      </trkpt>
      <trkpt lat="43.7548" lon="7.1276">
        <ele>415.9</ele>
        <time>2012-12-09T12:48:16Z</time>
      </trkpt>
      <trkpt lat="43.75491" lon="7.12776">
        <ele>414.6</ele>
        <time>2012-12-09T12:48:22Z</time>
      </trkpt>
      <trkpt lat="43.75492" lon="7.12779">
        <ele>414.1</ele>
        <time>2012-12-09T12:48:23Z</time>
      </trkpt>
      <trkpt lat="43.7549" lon="7.1279">
        <ele>414.1</ele>
        <time>2012-12-09T12:48:28Z</time>
      </trkpt>
      <trkpt lat="43.75488" lon="7.12794">
        <ele>411.8</ele>
        <time>2012-12-09T12:48:34Z</time>
      </trkpt>
      <trkpt lat="43.75481" lon="7.12784">
        <ele>425.1</ele>
        <time>2012-12-09T12:49:58Z</time>
      </trkpt>
      <trkpt lat="43.75473" lon="7.12787">
        <ele>421.4</ele>
        <time>2012-12-09T12:50:04Z</time>
      </trkpt>
      <trkpt lat="43.75458" lon="7.12817">
        <ele>414.4</ele>
        <time>2012-12-09T12:50:12Z</time>
      </trkpt>
      <trkpt lat="43.75448" lon="7.12855">
        <ele>410.5</ele>
        <time>2012-12-09T12:50:20Z</time>
      </trkpt>
      <trkpt lat="43.75451" lon="7.12872">
        <ele>406.8</ele>
        <time>2012-12-09T12:50:29Z</time>
      </trkpt>
      <trkpt lat="43.75451" lon="7.1288">
        <ele>407</ele>
        <time>2012-12-09T12:50:34Z</time>
      </trkpt>
      <trkpt lat="43.75445" lon="7.12893">
        <ele>408.1</ele>
        <time>2012-12-09T12:50:40Z</time>
      </trkpt>
      <trkpt lat="43.75438" lon="7.12903">
        <ele>410</ele>
        <time>2012-12-09T12:50:46Z</time>
      </trkpt>
      <trkpt lat="43.75432" lon="7.12918">
        <ele>410.6</ele>
        <time>2012-12-09T12:50:51Z</time>
      </trkpt>
      <trkpt lat="43.75411" lon="7.12943">
        <ele>409.8</ele>
        <time>2012-12-09T12:50:58Z</time>
      </trkpt>
      <trkpt lat="43.75393" lon="7.12962">
        <ele>406.8</ele>
        <time>2012-12-09T12:51:04Z</time>
      </trkpt>
      <trkpt lat="43.75383" lon="7.12978">
        <ele>404.5</ele>
        <time>2012-12-09T12:51:09Z</time>
      </trkpt>
      <trkpt lat="43.75375" lon="7.13002">
        <ele>402</ele>
        <time>2012-12-09T12:51:16Z</time>
      </trkpt>
      <trkpt lat="43.75359" lon="7.1301">
        <ele>399.3</ele>
        <time>2012-12-09T12:51:21Z</time>
      </trkpt>
      <trkpt lat="43.75349" lon="7.13021">
        <ele>397.6</ele>
        <time>2012-12-09T12:51:25Z</time>
      </trkpt>
      <trkpt lat="43.75335" lon="7.13041">
        <ele>395.4</ele>
        <time>2012-12-09T12:51:31Z</time>
      </trkpt>
      <trkpt lat="43.7527" lon="7.13086">
        <ele>384</ele>
        <time>2012-12-09T12:51:48Z</time>
      </trkpt>
      <trkpt lat="43.75267" lon="7.13086">
        <ele>384.2</ele>
        <time>2012-12-09T12:51:49Z</time>
      </trkpt>
      <trkpt lat="43.75237" lon="7.13102">
        <ele>379.5</ele>
        <time>2012-12-09T12:51:57Z</time>
      </trkpt>
      <trkpt lat="43.75208" lon="7.13112">
        <ele>375.1</ele>
        <time>2012-12-09T12:52:04Z</time>
      </trkpt>
      <trkpt lat="43.75202" lon="7.13113">
        <ele>374.8</ele>
        <time>2012-12-09T12:52:05Z</time>
      </trkpt>
      <trkpt lat="43.75184" lon="7.1312">
        <ele>372.8</ele>
        <time>2012-12-09T12:52:10Z</time>
      </trkpt>
      <trkpt lat="43.75167" lon="7.13123">
        <ele>373.3</ele>
        <time>2012-12-09T12:52:16Z</time>
      </trkpt>
      <trkpt lat="43.75159" lon="7.13129">
        <ele>373.4</ele>
        <time>2012-12-09T12:52:20Z</time>
      </trkpt>
      <trkpt lat="43.7515" lon="7.13142">
        <ele>373.7</ele>
        <time>2012-12-09T12:52:26Z</time>
      </trkpt>
      <trkpt lat="43.75146" lon="7.13153">
        <ele>373.1</ele>
        <time>2012-12-09T12:52:30Z</time>
      </trkpt>
      <trkpt lat="43.75138" lon="7.13163">
        <ele>375.3</ele>
        <time>2012-12-09T12:52:34Z</time>
      </trkpt>
      <trkpt lat="43.75115" lon="7.13178">
        <ele>379.4</ele>
        <time>2012-12-09T12:52:48Z</time>
      </trkpt>
      <trkpt lat="43.75111" lon="7.1318">
        <ele>379.4</ele>
        <time>2012-12-09T12:52:52Z</time>
      </trkpt>
      <trkpt lat="43.75109" lon="7.13181">
        <ele>379.8</ele>
        <time>2012-12-09T12:52:56Z</time>
      </trkpt>
      <trkpt lat="43.75096" lon="7.13188">
        <ele>380.4</ele>
        <time>2012-12-09T12:53:04Z</time>
      </trkpt>
      <trkpt lat="43.75071" lon="7.13208">
        <ele>381.1</ele>
        <time>2012-12-09T12:53:18Z</time>
      </trkpt>
      <trkpt lat="43.75058" lon="7.13211">
        <ele>380.4</ele>
        <time>2012-12-09T12:53:23Z</time>
      </trkpt>
      <trkpt lat="43.75049" lon="7.13217">
        <ele>381.1</ele>
        <time>2012-12-09T12:53:27Z</time>
      </trkpt>
      <trkpt lat="43.75048" lon="7.13219">
        <ele>383.2</ele>
        <time>2012-12-09T12:53:32Z</time>
      </trkpt>
      <trkpt lat="43.75049" lon="7.13222">
        <ele>383.7</ele>
        <time>2012-12-09T12:53:37Z</time>
      </trkpt>
      <trkpt lat="43.75042" lon="7.13232">
        <ele>382.9</ele>
        <time>2012-12-09T12:53:43Z</time>
      </trkpt>
      <trkpt lat="43.75033" lon="7.1324">
        <ele>383.3</ele>
        <time>2012-12-09T12:53:49Z</time>
      </trkpt>
      <trkpt lat="43.75024" lon="7.13245">
        <ele>381.6</ele>
        <time>2012-12-09T12:54:06Z</time>
      </trkpt>
      <trkpt lat="43.75012" lon="7.13257">
        <ele>381.4</ele>
        <time>2012-12-09T12:54:12Z</time>
      </trkpt>
      <trkpt lat="43.75" lon="7.13268">
        <ele>382.2</ele>
        <time>2012-12-09T12:54:19Z</time>
      </trkpt>
      <trkpt lat="43.74992" lon="7.13282">
        <ele>382.8</ele>
        <time>2012-12-09T12:54:25Z</time>
      </trkpt>
      <trkpt lat="43.74984" lon="7.13288">
        <ele>382.1</ele>
        <time>2012-12-09T12:54:30Z</time>
      </trkpt>
      <trkpt lat="43.74972" lon="7.13294">
        <ele>382.3</ele>
        <time>2012-12-09T12:54:37Z</time>
      </trkpt>
      <trkpt lat="43.74951" lon="7.13311">
        <ele>382.9</ele>
        <time>2012-12-09T12:54:51Z</time>
      </trkpt>
      <trkpt lat="43.74945" lon="7.13327">
        <ele>385.4</ele>
        <time>2012-12-09T12:55:00Z</time>
      </trkpt>
      <trkpt lat="43.74939" lon="7.13353">
        <ele>389.5</ele>
        <time>2012-12-09T12:55:14Z</time>
      </trkpt>
      <trkpt lat="43.74938" lon="7.13367">
        <ele>390.4</ele>
        <time>2012-12-09T12:55:22Z</time>
      </trkpt>
      <trkpt lat="43.74938" lon="7.13374">
        <ele>391.3</ele>
        <time>2012-12-09T12:55:28Z</time>
      </trkpt>
      <trkpt lat="43.74934" lon="7.13378">
        <ele>394.8</ele>
        <time>2012-12-09T12:55:39Z</time>
      </trkpt>
      <trkpt lat="43.7493" lon="7.13394">
        <ele>393.2</ele>
        <time>2012-12-09T12:55:53Z</time>
      </trkpt>
      <trkpt lat="43.74927" lon="7.13399">
        <ele>392.8</ele>
        <time>2012-12-09T12:55:58Z</time>
      </trkpt>
      <trkpt lat="43.74926" lon="7.13416">
        <ele>394.4</ele>
        <time>2012-12-09T12:56:11Z</time>
      </trkpt>
      <trkpt lat="43.74925" lon="7.13421">
        <ele>394.6</ele>
        <time>2012-12-09T12:56:15Z</time>
      </trkpt>
      <trkpt lat="43.74924" lon="7.13429">
        <ele>394.4</ele>
        <time>2012-12-09T12:56:22Z</time>
      </trkpt>
      <trkpt lat="43.74925" lon="7.1343">
        <ele>393.8</ele>
        <time>2012-12-09T12:56:23Z</time>
      </trkpt>
      <trkpt lat="43.74922" lon="7.13436">
        <ele>396.3</ele>
        <time>2012-12-09T12:56:29Z</time>
      </trkpt>
      <trkpt lat="43.74921" lon="7.13443">
        <ele>396.5</ele>
        <time>2012-12-09T12:56:36Z</time>
      </trkpt>
      <trkpt lat="43.74917" lon="7.1345">
        <ele>399.1</ele>
        <time>2012-12-09T12:56:43Z</time>
      </trkpt>
      <trkpt lat="43.74915" lon="7.13454">
        <ele>401.5</ele>
        <time>2012-12-09T12:56:48Z</time>
      </trkpt>
      <trkpt lat="43.74914" lon="7.13458">
        <ele>401.8</ele>
        <time>2012-12-09T12:56:52Z</time>
      </trkpt>
      <trkpt lat="43.74916" lon="7.13466">
        <ele>401.9</ele>
        <time>2012-12-09T12:56:57Z</time>
      </trkpt>
      <trkpt lat="43.74917" lon="7.13497">
        <ele>404.7</ele>
        <time>2012-12-09T12:57:19Z</time>
      </trkpt>
      <trkpt lat="43.74916" lon="7.13502">
        <ele>406.9</ele>
        <time>2012-12-09T12:57:24Z</time>
      </trkpt>
      <trkpt lat="43.74915" lon="7.13503">
        <ele>407.6</ele>
        <time>2012-12-09T12:57:25Z</time>
      </trkpt>
      <trkpt lat="43.74915" lon="7.13511">
        <ele>409.4</ele>
        <time>2012-12-09T12:57:31Z</time>
      </trkpt>
      <trkpt lat="43.74914" lon="7.13518">
        <ele>409</ele>
        <time>2012-12-09T12:57:37Z</time>
      </trkpt>
      <trkpt lat="43.74912" lon="7.13523">
        <ele>409.9</ele>
        <time>2012-12-09T12:57:42Z</time>
      </trkpt>
      <trkpt lat="43.74908" lon="7.13528">
        <ele>410.2</ele>
        <time>2012-12-09T12:57:49Z</time>
      </trkpt>
      <trkpt lat="43.74901" lon="7.1354">
        <ele>415.3</ele>
        <time>2012-12-09T12:58:00Z</time>
      </trkpt>
      <trkpt lat="43.74901" lon="7.13546">
        <ele>417.2</ele>
        <time>2012-12-09T12:58:05Z</time>
      </trkpt>
      <trkpt lat="43.74897" lon="7.13559">
        <ele>418.7</ele>
        <time>2012-12-09T12:58:13Z</time>
      </trkpt>
      <trkpt lat="43.74891" lon="7.13572">
        <ele>420.8</ele>
        <time>2012-12-09T12:58:27Z</time>
      </trkpt>
      <trkpt lat="43.74882" lon="7.13587">
        <ele>425.1</ele>
        <time>2012-12-09T12:58:36Z</time>
      </trkpt>
      <trkpt lat="43.74879" lon="7.13599">
        <ele>428.1</ele>
        <time>2012-12-09T12:58:42Z</time>
      </trkpt>
      <trkpt lat="43.74877" lon="7.13604">
        <ele>427.2</ele>
        <time>2012-12-09T12:58:49Z</time>
      </trkpt>
      <trkpt lat="43.74875" lon="7.13606">
        <ele>427.6</ele>
        <time>2012-12-09T12:58:54Z</time>
      </trkpt>
      <trkpt lat="43.74853" lon="7.13649">
        <ele>426</ele>
        <time>2012-12-09T12:59:14Z</time>
      </trkpt>
      <trkpt lat="43.74854" lon="7.13655">
        <ele>426.3</ele>
        <time>2012-12-09T12:59:17Z</time>
      </trkpt>
      <trkpt lat="43.74853" lon="7.13676">
        <ele>428.5</ele>
        <time>2012-12-09T12:59:28Z</time>
      </trkpt>
      <trkpt lat="43.74851" lon="7.13684">
        <ele>428.9</ele>
        <time>2012-12-09T12:59:33Z</time>
      </trkpt>
      <trkpt lat="43.74848" lon="7.1369">
        <ele>429.5</ele>
        <time>2012-12-09T12:59:37Z</time>
      </trkpt>
      <trkpt lat="43.74843" lon="7.13701">
        <ele>430.5</ele>
        <time>2012-12-09T12:59:45Z</time>
      </trkpt>
      <trkpt lat="43.74842" lon="7.13707">
        <ele>430.9</ele>
        <time>2012-12-09T12:59:48Z</time>
      </trkpt>
      <trkpt lat="43.7484" lon="7.13709">
        <ele>431.2</ele>
        <time>2012-12-09T12:59:50Z</time>
      </trkpt>
      <trkpt lat="43.74838" lon="7.13718">
        <ele>432.2</ele>
        <time>2012-12-09T12:59:56Z</time>
      </trkpt>
      <trkpt lat="43.74835" lon="7.13726">
        <ele>435.4</ele>
        <time>2012-12-09T13:00:02Z</time>
      </trkpt>
      <trkpt lat="43.74831" lon="7.1375">
        <ele>439.3</ele>
        <time>2012-12-09T13:00:16Z</time>
      </trkpt>
      <trkpt lat="43.74827" lon="7.13762">
        <ele>442.2</ele>
        <time>2012-12-09T13:00:24Z</time>
      </trkpt>
      <trkpt lat="43.74826" lon="7.13763">
        <ele>442.1</ele>
        <time>2012-12-09T13:00:25Z</time>
      </trkpt>
      <trkpt lat="43.74825" lon="7.13774">
        <ele>441.8</ele>
        <time>2012-12-09T13:00:31Z</time>
      </trkpt>
      <trkpt lat="43.74821" lon="7.13789">
        <ele>443.9</ele>
        <time>2012-12-09T13:00:39Z</time>
      </trkpt>
      <trkpt lat="43.74815" lon="7.13804">
        <ele>445.4</ele>
        <time>2012-12-09T13:00:45Z</time>
      </trkpt>
      <trkpt lat="43.74808" lon="7.13831">
        <ele>445</ele>
        <time>2012-12-09T13:00:56Z</time>
      </trkpt>
      <trkpt lat="43.74801" lon="7.13849">
        <ele>441</ele>
        <time>2012-12-09T13:01:02Z</time>
      </trkpt>
      <trkpt lat="43.74794" lon="7.13863">
        <ele>440.2</ele>
        <time>2012-12-09T13:01:06Z</time>
      </trkpt>
      <trkpt lat="43.7478" lon="7.139">
        <ele>442</ele>
        <time>2012-12-09T13:01:18Z</time>
      </trkpt>
      <trkpt lat="43.74775" lon="7.1392">
        <ele>444.3</ele>
        <time>2012-12-09T13:01:24Z</time>
      </trkpt>
      <trkpt lat="43.74773" lon="7.13938">
        <ele>446.8</ele>
        <time>2012-12-09T13:01:30Z</time>
      </trkpt>
      <trkpt lat="43.74738" lon="7.14071">
        <ele>457.9</ele>
        <time>2012-12-09T13:02:01Z</time>
      </trkpt>
      <trkpt lat="43.74736" lon="7.1412">
        <ele>458.7</ele>
        <time>2012-12-09T13:02:12Z</time>
      </trkpt>
      <trkpt lat="43.7474" lon="7.14187">
        <ele>453.6</ele>
        <time>2012-12-09T13:02:23Z</time>
      </trkpt>
      <trkpt lat="43.74752" lon="7.14215">
        <ele>447.6</ele>
        <time>2012-12-09T13:02:28Z</time>
      </trkpt>
      <trkpt lat="43.74753" lon="7.14236">
        <ele>454.7</ele>
        <time>2012-12-09T13:02:33Z</time>
      </trkpt>
      <trkpt lat="43.74753" lon="7.14241">
        <ele>455.6</ele>
        <time>2012-12-09T13:02:34Z</time>
      </trkpt>
      <trkpt lat="43.74781" lon="7.14286">
        <ele>449.2</ele>
        <time>2012-12-09T13:02:45Z</time>
      </trkpt>
      <trkpt lat="43.74793" lon="7.14299">
        <ele>443.5</ele>
        <time>2012-12-09T13:02:49Z</time>
      </trkpt>
      <trkpt lat="43.74802" lon="7.14323">
        <ele>441.1</ele>
        <time>2012-12-09T13:02:55Z</time>
      </trkpt>
      <trkpt lat="43.74792" lon="7.14338">
        <ele>438.6</ele>
        <time>2012-12-09T13:02:59Z</time>
      </trkpt>
      <trkpt lat="43.7479" lon="7.14341">
        <ele>439</ele>
        <time>2012-12-09T13:03:00Z</time>
      </trkpt>
      <trkpt lat="43.7479" lon="7.14343">
        <ele>442.4</ele>
        <time>2012-12-09T13:03:02Z</time>
      </trkpt>
      <trkpt lat="43.74797" lon="7.1434">
        <ele>444.1</ele>
        <time>2012-12-09T13:03:05Z</time>
      </trkpt>
      <trkpt lat="43.74804" lon="7.14341">
        <ele>445.2</ele>
        <time>2012-12-09T13:03:11Z</time>
      </trkpt>
      <trkpt lat="43.74832" lon="7.14355">
        <ele>441.3</ele>
        <time>2012-12-09T13:03:23Z</time>
      </trkpt>
      <trkpt lat="43.74839" lon="7.14365">
        <ele>438.3</ele>
        <time>2012-12-09T13:03:26Z</time>
      </trkpt>
      <trkpt lat="43.74853" lon="7.1437">
        <ele>435.7</ele>
        <time>2012-12-09T13:03:31Z</time>
      </trkpt>
      <trkpt lat="43.7486" lon="7.14371">
        <ele>434.7</ele>
        <time>2012-12-09T13:03:36Z</time>
      </trkpt>
      <trkpt lat="43.74859" lon="7.14368">
        <ele>427.8</ele>
        <time>2012-12-09T13:32:49Z</time>
      </trkpt>
      <trkpt lat="43.74854" lon="7.14371">
        <ele>439.8</ele>
        <time>2012-12-09T13:33:06Z</time>
      </trkpt>
      <trkpt lat="43.74847" lon="7.14374">
        <ele>449.1</ele>
        <time>2012-12-09T13:33:46Z</time>
      </trkpt>
      <trkpt lat="43.74847" lon="7.14372">
        <ele>448.7</ele>
        <time>2012-12-09T13:33:48Z</time>
      </trkpt>
      <trkpt lat="43.74856" lon="7.14365">
        <ele>445.3</ele>
        <time>2012-12-09T13:33:54Z</time>
      </trkpt>
      <trkpt lat="43.74875" lon="7.14368">
        <ele>444.7</ele>
        <time>2012-12-09T13:34:01Z</time>
      </trkpt>
      <trkpt lat="43.74894" lon="7.14374">
        <ele>442</ele>
        <time>2012-12-09T13:34:07Z</time>
      </trkpt>
      <trkpt lat="43.7499" lon="7.1442">
        <ele>436.4</ele>
        <time>2012-12-09T13:34:31Z</time>
      </trkpt>
      <trkpt lat="43.74985" lon="7.14422">
        <ele>434.7</ele>
        <time>2012-12-09T13:34:34Z</time>
      </trkpt>
      <trkpt lat="43.7498" lon="7.14427">
        <ele>433.5</ele>
        <time>2012-12-09T13:34:37Z</time>
      </trkpt>
      <trkpt lat="43.74977" lon="7.14439">
        <ele>433.7</ele>
        <time>2012-12-09T13:34:40Z</time>
      </trkpt>
      <trkpt lat="43.74969" lon="7.14457">
        <ele>428.8</ele>
        <time>2012-12-09T13:34:46Z</time>
      </trkpt>
      <trkpt lat="43.74966" lon="7.14477">
        <ele>426.2</ele>
        <time>2012-12-09T13:34:51Z</time>
      </trkpt>
      <trkpt lat="43.74968" lon="7.14482">
        <ele>422</ele>
        <time>2012-12-09T13:34:55Z</time>
      </trkpt>
      <trkpt lat="43.74974" lon="7.14483">
        <ele>419.1</ele>
        <time>2012-12-09T13:34:59Z</time>
      </trkpt>
      <trkpt lat="43.74981" lon="7.14478">
        <ele>418.1</ele>
        <time>2012-12-09T13:35:03Z</time>
      </trkpt>
      <trkpt lat="43.74979" lon="7.14477">
        <ele>418</ele>
        <time>2012-12-09T13:35:08Z</time>
      </trkpt>
      <trkpt lat="43.74979" lon="7.14476">
        <ele>418.4</ele>
        <time>2012-12-09T13:35:12Z</time>
      </trkpt>
      <trkpt lat="43.74986" lon="7.14465">
        <ele>419.9</ele>
        <time>2012-12-09T13:35:17Z</time>
      </trkpt>
      <trkpt lat="43.74995" lon="7.1446">
        <ele>418.5</ele>
        <time>2012-12-09T13:35:22Z</time>
      </trkpt>
      <trkpt lat="43.74995" lon="7.14461">
        <ele>419.1</ele>
        <time>2012-12-09T13:35:33Z</time>
      </trkpt>
      <trkpt lat="43.74996" lon="7.14462">
        <ele>418.3</ele>
        <time>2012-12-09T13:35:37Z</time>
      </trkpt>
    </trkseg>
  </trk>
</gpx>